PIA781 OPIS-CYYZ
Flight info
| Callsign | PIA781 |
|---|---|
| Flight time | N/A |
| Altitude | 33000 |
| Route | KALMI Z305 PS P500 ATROL/N0486F340 P500 GERRY/N0487F330 P500 MOTMO/N0484F340 P500 FIRUZ/K0893F340 Z407 POMIR L139 MAGOL P178 GOBOR M168 DZG W332 EDETO M168 ULRES/K0900F360 M168 GIMON T532 NIRUT/N0483F360 DCT 78N013E/M082F360 78N012W/M083F380 77N036W 73N052W 69N062W/N0473F380 64N069W/N0469F400 60N074W DCT TEXEX Q883 LIBUT J567 YVO/N0477F410 Q837 MIXAK/N0473F400 DCT ROSVO IMEBA9 |
| Aircraft | B772/H-SDE2E3FGHIJ5LORVWXY/LB1D1 |
Departure
| Time | 2026-04-25 07:31 |
|---|---|
| Airport | Islamabad International Airport (OPIS) |
Arrival
| Time | N/A |
|---|---|
| Airport | Toronto Pearson International Airport (CYYZ) |
| Time | Latitude | Longitude | Altitude | Speed | Heading |
|---|---|---|---|---|---|
| 2026-04-25 07:14 | 33.55414 | 72.83519 | 1774 ft | 0 kts | 10° |
| 2026-04-25 07:20 | 33.55406 | 72.83517 | 1776 ft | 3 kts | 12° |
| 2026-04-25 07:21 | 33.55386 | 72.83511 | 1776 ft | 3 kts | 18° |
| 2026-04-25 07:21 | 33.55368 | 72.83503 | 1774 ft | 3 kts | 28° |
| 2026-04-25 07:21 | 33.55351 | 72.83490 | 1773 ft | 3 kts | 46° |
| 2026-04-25 07:21 | 33.55340 | 72.83472 | 1772 ft | 3 kts | 81° |
| 2026-04-25 07:22 | 33.55339 | 72.83461 | 1775 ft | 0 kts | 100° |
| 2026-04-25 07:25 | 33.55336 | 72.83484 | 1774 ft | 7 kts | 101° |
| 2026-04-25 07:25 | 33.55317 | 72.83539 | 1776 ft | 8 kts | 141° |
| 2026-04-25 07:25 | 33.55265 | 72.83540 | 1776 ft | 8 kts | 185° |
| 2026-04-25 07:26 | 33.55212 | 72.83530 | 1776 ft | 9 kts | 191° |
| 2026-04-25 07:26 | 33.55142 | 72.83513 | 1775 ft | 13 kts | 191° |
| 2026-04-25 07:26 | 33.55058 | 72.83518 | 1775 ft | 13 kts | 135° |
| 2026-04-25 07:26 | 33.55035 | 72.83627 | 1776 ft | 18 kts | 101° |
| 2026-04-25 07:27 | 33.55008 | 72.83801 | 1777 ft | 22 kts | 100° |
| 2026-04-25 07:27 | 33.54981 | 72.83981 | 1776 ft | 22 kts | 100° |
| 2026-04-25 07:27 | 33.54953 | 72.84162 | 1776 ft | 22 kts | 100° |
| 2026-04-25 07:27 | 33.54930 | 72.84308 | 1775 ft | 15 kts | 101° |
| 2026-04-25 07:28 | 33.54915 | 72.84412 | 1774 ft | 9 kts | 100° |
| 2026-04-25 07:28 | 33.54903 | 72.84493 | 1773 ft | 12 kts | 100° |
| 2026-04-25 07:28 | 33.54845 | 72.84548 | 1776 ft | 12 kts | 184° |
| 2026-04-25 07:28 | 33.54762 | 72.84528 | 1772 ft | 13 kts | 192° |
| 2026-04-25 07:29 | 33.54673 | 72.84505 | 1770 ft | 13 kts | 192° |
| 2026-04-25 07:29 | 33.54582 | 72.84484 | 1769 ft | 13 kts | 189° |
| 2026-04-25 07:29 | 33.54520 | 72.84460 | 1768 ft | 7 kts | 225° |
| 2026-04-25 07:29 | 33.54520 | 72.84403 | 1769 ft | 6 kts | 280° |
| 2026-04-25 07:30 | 33.54520 | 72.84400 | 1769 ft | 0 kts | 280° |
| 2026-04-25 07:30 | 33.54546 | 72.84240 | 1767 ft | 47 kts | 281° |
| 2026-04-25 07:30 | 33.54639 | 72.83639 | 1771 ft | 100 kts | 280° |
| 2026-04-25 07:31 | 33.54798 | 72.82621 | 1764 ft | 147 kts | 281° |
| 2026-04-25 07:31 | 33.55001 | 72.81267 | 1839 ft | 176 kts | 278° |
| 2026-04-25 07:31 | 33.55145 | 72.80292 | 2073 ft | 183 kts | 280° |
| 2026-04-25 07:31 | 33.55357 | 72.78792 | 2515 ft | 183 kts | 276° |
| 2026-04-25 07:32 | 33.55528 | 72.77200 | 2745 ft | 196 kts | 283° |
| 2026-04-25 07:32 | 33.55640 | 72.76531 | 3015 ft | 193 kts | 283° |
| 2026-04-25 07:32 | 33.55736 | 72.75961 | 3211 ft | 194 kts | 283° |
| 2026-04-25 07:32 | 33.56009 | 72.74358 | 3512 ft | 202 kts | 282° |
| 2026-04-25 07:33 | 33.55985 | 72.73022 | 3506 ft | 222 kts | 254° |
| 2026-04-25 07:33 | 33.55900 | 72.72745 | 3518 ft | 225 kts | 246° |
| 2026-04-25 07:33 | 33.54864 | 72.71293 | 3660 ft | 237 kts | 224° |
| 2026-04-25 07:33 | 33.53872 | 72.69696 | 3754 ft | 245 kts | 252° |
| 2026-04-25 07:34 | 33.53628 | 72.67659 | 3892 ft | 250 kts | 273° |
| 2026-04-25 07:34 | 33.53685 | 72.65522 | 4108 ft | 263 kts | 272° |
| 2026-04-25 07:34 | 33.53731 | 72.63300 | 4475 ft | 269 kts | 272° |
| 2026-04-25 07:34 | 33.53779 | 72.61030 | 4913 ft | 274 kts | 271° |
| 2026-04-25 07:35 | 33.53825 | 72.58776 | 5461 ft | 272 kts | 273° |
| 2026-04-25 07:35 | 33.53872 | 72.56515 | 6016 ft | 272 kts | 272° |
| 2026-04-25 07:35 | 33.53921 | 72.54215 | 6399 ft | 278 kts | 272° |
| 2026-04-25 07:35 | 33.53967 | 72.51914 | 6947 ft | 274 kts | 272° |
| 2026-04-25 07:36 | 33.54012 | 72.49616 | 7379 ft | 277 kts | 271° |
| 2026-04-25 07:36 | 33.54057 | 72.47295 | 7794 ft | 279 kts | 271° |
| 2026-04-25 07:36 | 33.54099 | 72.45016 | 8348 ft | 275 kts | 271° |
| 2026-04-25 07:36 | 33.54141 | 72.42724 | 8776 ft | 277 kts | 271° |
| 2026-04-25 07:37 | 33.54183 | 72.40417 | 9217 ft | 276 kts | 271° |
| 2026-04-25 07:37 | 33.54224 | 72.38112 | 9658 ft | 277 kts | 270° |
| 2026-04-25 07:37 | 33.54265 | 72.35785 | 10000 ft | 281 kts | 271° |
| 2026-04-25 07:37 | 33.54306 | 72.33408 | 10173 ft | 292 kts | 271° |
| 2026-04-25 07:38 | 33.54348 | 72.30924 | 10273 ft | 305 kts | 271° |
| 2026-04-25 07:38 | 33.54392 | 72.28331 | 10377 ft | 318 kts | 271° |
| 2026-04-25 07:38 | 33.54437 | 72.25647 | 10484 ft | 333 kts | 271° |
| 2026-04-25 07:38 | 33.54484 | 72.22808 | 10622 ft | 348 kts | 270° |
| 2026-04-25 07:39 | 33.54532 | 72.19859 | 10936 ft | 358 kts | 271° |
| 2026-04-25 07:39 | 33.54580 | 72.16840 | 11440 ft | 364 kts | 271° |
| 2026-04-25 07:39 | 33.54629 | 72.13792 | 12053 ft | 367 kts | 271° |
| 2026-04-25 07:39 | 33.54678 | 72.10726 | 12739 ft | 368 kts | 271° |
| 2026-04-25 07:40 | 33.54725 | 72.07637 | 13337 ft | 372 kts | 270° |
| 2026-04-25 07:40 | 33.54955 | 72.04548 | 13765 ft | 376 kts | 283° |
| 2026-04-25 07:40 | 33.55937 | 72.01656 | 14210 ft | 383 kts | 300° |
| 2026-04-25 07:40 | 33.57563 | 71.99125 | 14772 ft | 384 kts | 313° |
| 2026-04-25 07:41 | 33.59484 | 71.96864 | 15244 ft | 388 kts | 314° |
| 2026-04-25 07:41 | 33.61437 | 71.94611 | 15770 ft | 391 kts | 314° |
| 2026-04-25 07:41 | 33.63406 | 71.92337 | 16326 ft | 393 kts | 314° |
| 2026-04-25 07:41 | 33.65377 | 71.90044 | 16846 ft | 396 kts | 314° |
| 2026-04-25 07:42 | 33.67354 | 71.87727 | 17350 ft | 398 kts | 313° |
| 2026-04-25 07:42 | 33.69335 | 71.85393 | 17869 ft | 400 kts | 313° |
| 2026-04-25 07:42 | 33.71326 | 71.83034 | 18345 ft | 403 kts | 313° |
| 2026-04-25 07:42 | 33.73296 | 71.80692 | 18721 ft | 405 kts | 313° |
| 2026-04-25 07:43 | 33.75299 | 71.78310 | 19199 ft | 405 kts | 313° |
| 2026-04-25 07:43 | 33.77307 | 71.75923 | 19682 ft | 406 kts | 313° |
| 2026-04-25 07:43 | 33.79323 | 71.73525 | 20129 ft | 407 kts | 313° |
| 2026-04-25 07:43 | 33.81344 | 71.71116 | 20559 ft | 409 kts | 313° |
| 2026-04-25 07:44 | 33.83349 | 71.68727 | 20983 ft | 410 kts | 313° |
| 2026-04-25 07:44 | 33.85379 | 71.66306 | 21420 ft | 411 kts | 313° |
| 2026-04-25 07:44 | 33.87427 | 71.63878 | 21814 ft | 414 kts | 313° |
| 2026-04-25 07:44 | 33.89503 | 71.61446 | 22201 ft | 416 kts | 313° |
| 2026-04-25 07:45 | 33.91577 | 71.59019 | 22597 ft | 417 kts | 313° |
| 2026-04-25 07:45 | 33.93659 | 71.56576 | 23028 ft | 418 kts | 313° |
| 2026-04-25 07:45 | 33.95836 | 71.54266 | 23299 ft | 420 kts | 324° |
| 2026-04-25 07:45 | 33.98529 | 71.52795 | 23495 ft | 434 kts | 341° |
| 2026-04-25 07:46 | 34.01533 | 71.52203 | 23810 ft | 443 kts | 354° |
| 2026-04-25 07:46 | 34.04623 | 71.52447 | 24103 ft | 447 kts | 2° |
| 2026-04-25 07:46 | 34.07688 | 71.52910 | 24322 ft | 451 kts | 2° |
| 2026-04-25 07:46 | 34.10812 | 71.53420 | 24599 ft | 455 kts | 3° |
| 2026-04-25 07:47 | 34.13956 | 71.53938 | 24899 ft | 456 kts | 2° |
| 2026-04-25 07:47 | 34.17113 | 71.54446 | 25203 ft | 458 kts | 2° |
| 2026-04-25 07:47 | 34.20282 | 71.54939 | 25492 ft | 460 kts | 2° |
| 2026-04-25 07:47 | 34.23476 | 71.55421 | 25771 ft | 463 kts | 1° |
| 2026-04-25 07:48 | 34.26684 | 71.55895 | 26053 ft | 465 kts | 1° |
| 2026-04-25 07:48 | 34.29904 | 71.56366 | 26312 ft | 467 kts | 1° |
| 2026-04-25 07:48 | 34.33104 | 71.56832 | 26572 ft | 470 kts | 1° |
| 2026-04-25 07:48 | 34.36358 | 71.57306 | 26863 ft | 472 kts | 1° |
| 2026-04-25 07:49 | 34.39623 | 71.57780 | 27127 ft | 474 kts | 1° |
| 2026-04-25 07:49 | 34.42911 | 71.58260 | 27367 ft | 476 kts | 1° |
| 2026-04-25 07:49 | 34.46205 | 71.58743 | 27646 ft | 478 kts | 0° |
| 2026-04-25 07:49 | 34.49518 | 71.59230 | 27917 ft | 480 kts | 0° |
| 2026-04-25 07:50 | 34.52847 | 71.59721 | 28148 ft | 483 kts | 0° |
| 2026-04-25 07:50 | 34.56190 | 71.60212 | 28424 ft | 485 kts | 0° |
| 2026-04-25 07:50 | 34.59546 | 71.60713 | 28687 ft | 487 kts | 0° |
| 2026-04-25 07:50 | 34.62875 | 71.61211 | 28907 ft | 488 kts | 0° |
| 2026-04-25 07:51 | 34.66254 | 71.61702 | 29179 ft | 489 kts | 360° |
| 2026-04-25 07:51 | 34.69640 | 71.62191 | 29460 ft | 491 kts | 360° |
| 2026-04-25 07:51 | 34.73049 | 71.62681 | 29752 ft | 494 kts | 360° |
| 2026-04-25 07:51 | 34.76477 | 71.63184 | 29983 ft | 496 kts | 360° |
| 2026-04-25 07:52 | 34.79917 | 71.63700 | 30202 ft | 498 kts | 360° |
| 2026-04-25 07:52 | 34.83361 | 71.64215 | 30476 ft | 499 kts | 360° |
| 2026-04-25 07:52 | 34.86789 | 71.64724 | 30915 ft | 494 kts | 0° |
| 2026-04-25 07:52 | 34.90147 | 71.65231 | 31256 ft | 491 kts | 0° |
| 2026-04-25 07:53 | 34.93551 | 71.65740 | 31440 ft | 492 kts | 0° |
| 2026-04-25 07:53 | 34.96957 | 71.66245 | 31596 ft | 494 kts | 0° |
| 2026-04-25 07:53 | 35.00369 | 71.66750 | 31744 ft | 495 kts | 360° |
| 2026-04-25 07:53 | 35.03788 | 71.67254 | 31982 ft | 494 kts | 360° |
| 2026-04-25 07:54 | 35.07205 | 71.67761 | 32277 ft | 493 kts | 0° |
| 2026-04-25 07:54 | 35.10614 | 71.68271 | 32509 ft | 492 kts | 0° |
| 2026-04-25 07:54 | 35.14015 | 71.68782 | 32761 ft | 492 kts | 0° |
| 2026-04-25 07:54 | 35.17429 | 71.69295 | 32969 ft | 493 kts | 360° |
| 2026-04-25 07:55 | 35.24230 | 71.70300 | 33097 ft | 497 kts | 0° |
| 2026-04-25 07:55 | 35.31065 | 71.71323 | 33109 ft | 491 kts | 0° |
| 2026-04-25 07:56 | 35.37848 | 71.72333 | 33152 ft | 491 kts | 0° |
| 2026-04-25 07:56 | 35.44630 | 71.73357 | 33145 ft | 491 kts | 1° |
| 2026-04-25 07:57 | 35.51426 | 71.74383 | 33180 ft | 494 kts | 0° |
| 2026-04-25 07:57 | 35.58260 | 71.75408 | 33218 ft | 495 kts | 0° |
| 2026-04-25 07:58 | 35.65110 | 71.76443 | 33176 ft | 495 kts | 1° |
| 2026-04-25 07:58 | 35.71935 | 71.77473 | 33186 ft | 494 kts | 0° |
| 2026-04-25 07:59 | 35.78747 | 71.78504 | 33224 ft | 493 kts | 0° |
| 2026-04-25 07:59 | 35.85500 | 71.79328 | 33222 ft | 484 kts | 351° |
| 2026-04-25 08:00 | 35.88801 | 71.78839 | 33218 ft | 472 kts | 341° |
| 2026-04-25 08:00 | 35.91900 | 71.77688 | 33254 ft | 461 kts | 332° |
| 2026-04-25 08:00 | 35.97466 | 71.73974 | 33257 ft | 456 kts | 323° |
| 2026-04-25 08:01 | 36.03045 | 71.70035 | 33275 ft | 463 kts | 325° |
| 2026-04-25 08:01 | 36.08653 | 71.66164 | 33259 ft | 464 kts | 325° |
| 2026-04-25 08:02 | 36.14269 | 71.62282 | 33261 ft | 460 kts | 325° |
| 2026-04-25 08:02 | 36.20269 | 71.59392 | 33307 ft | 476 kts | 344° |
| 2026-04-25 08:03 | 36.23597 | 71.58998 | 33276 ft | 487 kts | 354° |
| 2026-04-25 08:03 | 36.27004 | 71.59373 | 33314 ft | 494 kts | 4° |
| 2026-04-25 08:03 | 36.33798 | 71.60840 | 33320 ft | 496 kts | 4° |
| 2026-04-25 08:04 | 36.40582 | 71.62175 | 33323 ft | 496 kts | 3° |
| 2026-04-25 08:04 | 36.47417 | 71.63301 | 33341 ft | 492 kts | 358° |
| 2026-04-25 08:05 | 36.54194 | 71.63262 | 33389 ft | 482 kts | 352° |
| 2026-04-25 08:05 | 36.60860 | 71.63089 | 33340 ft | 481 kts | 353° |
| 2026-04-25 08:06 | 36.67546 | 71.63065 | 33332 ft | 478 kts | 353° |
| 2026-04-25 08:06 | 36.74172 | 71.62893 | 33346 ft | 478 kts | 354° |
| 2026-04-25 08:07 | 36.80841 | 71.62935 | 33344 ft | 480 kts | 355° |
| 2026-04-25 08:07 | 36.87539 | 71.63008 | 33327 ft | 482 kts | 355° |
| 2026-04-25 08:08 | 36.94254 | 71.63054 | 33328 ft | 483 kts | 354° |
| 2026-04-25 08:08 | 37.00986 | 71.63069 | 33354 ft | 483 kts | 354° |
| 2026-04-25 08:09 | 37.07676 | 71.63080 | 33349 ft | 484 kts | 354° |
| 2026-04-25 08:09 | 37.14423 | 71.63085 | 33342 ft | 484 kts | 354° |
| 2026-04-25 08:10 | 37.21178 | 71.63099 | 33349 ft | 485 kts | 354° |
| 2026-04-25 08:10 | 37.27947 | 71.63120 | 33324 ft | 486 kts | 354° |
| 2026-04-25 08:11 | 37.34664 | 71.63136 | 33309 ft | 485 kts | 354° |
| 2026-04-25 08:11 | 37.38030 | 71.63143 | 33338 ft | 484 kts | 354° |
| 2026-04-25 08:13 | 37.61486 | 71.63183 | 33318 ft | 483 kts | 354° |
| 2026-04-25 08:14 | 37.71587 | 71.63203 | 33300 ft | 484 kts | 355° |
| 2026-04-25 08:14 | 37.78316 | 71.63220 | 33297 ft | 483 kts | 354° |
| 2026-04-25 08:15 | 37.85023 | 71.63233 | 33250 ft | 482 kts | 355° |
| 2026-04-25 08:15 | 37.91728 | 71.63246 | 33286 ft | 481 kts | 354° |
| 2026-04-25 08:16 | 37.98398 | 71.63257 | 33261 ft | 482 kts | 354° |
| 2026-04-25 08:16 | 38.05089 | 71.63275 | 33280 ft | 479 kts | 355° |
| 2026-04-25 08:17 | 38.11770 | 71.63284 | 33316 ft | 481 kts | 355° |
| 2026-04-25 08:17 | 38.18493 | 71.63298 | 33271 ft | 482 kts | 355° |
| 2026-04-25 08:18 | 38.25212 | 71.63305 | 33295 ft | 482 kts | 355° |
| 2026-04-25 08:18 | 38.31889 | 71.63301 | 33314 ft | 482 kts | 355° |
| 2026-04-25 08:19 | 38.38618 | 71.63300 | 33340 ft | 483 kts | 355° |
| 2026-04-25 08:19 | 38.45341 | 71.63299 | 33336 ft | 483 kts | 355° |
| 2026-04-25 08:20 | 38.52040 | 71.63300 | 33327 ft | 484 kts | 355° |
| 2026-04-25 08:20 | 38.58749 | 71.63014 | 33357 ft | 480 kts | 348° |
| 2026-04-25 08:21 | 38.65237 | 71.61304 | 33382 ft | 473 kts | 341° |
| 2026-04-25 08:21 | 38.71605 | 71.59288 | 33364 ft | 474 kts | 341° |
| 2026-04-25 08:22 | 38.78029 | 71.57290 | 33356 ft | 475 kts | 341° |
| 2026-04-25 08:22 | 38.84464 | 71.55317 | 33340 ft | 475 kts | 342° |
| 2026-04-25 08:23 | 38.90914 | 71.53345 | 33287 ft | 475 kts | 342° |
| 2026-04-25 08:23 | 38.97290 | 71.51391 | 33332 ft | 474 kts | 342° |
| 2026-04-25 08:24 | 39.03724 | 71.49406 | 33313 ft | 474 kts | 341° |
| 2026-04-25 08:24 | 39.10152 | 71.47426 | 33291 ft | 474 kts | 341° |
| 2026-04-25 08:25 | 39.16532 | 71.45457 | 33274 ft | 474 kts | 341° |
| 2026-04-25 08:25 | 39.22965 | 71.43467 | 33287 ft | 475 kts | 341° |
| 2026-04-25 08:26 | 39.29405 | 71.41471 | 33272 ft | 475 kts | 341° |
| 2026-04-25 08:26 | 39.35816 | 71.39481 | 33270 ft | 475 kts | 341° |
| 2026-04-25 08:27 | 39.41170 | 71.37815 | 33290 ft | 475 kts | 341° |
| 2026-04-25 08:27 | 39.47599 | 71.35814 | 33278 ft | 474 kts | 341° |
| 2026-04-25 08:28 | 39.55061 | 71.33480 | 33266 ft | 473 kts | 342° |
| 2026-04-25 08:28 | 39.60390 | 71.31824 | 33279 ft | 474 kts | 342° |
| 2026-04-25 08:29 | 39.66811 | 71.29829 | 33262 ft | 475 kts | 341° |
| 2026-04-25 08:29 | 39.73247 | 71.27840 | 33256 ft | 473 kts | 342° |
| 2026-04-25 08:30 | 39.79653 | 71.25839 | 33263 ft | 473 kts | 341° |
| 2026-04-25 08:30 | 39.86051 | 71.23785 | 33208 ft | 472 kts | 342° |
| 2026-04-25 08:31 | 39.92427 | 71.21759 | 33222 ft | 472 kts | 342° |
| 2026-04-25 08:31 | 39.98770 | 71.19728 | 33181 ft | 473 kts | 342° |
| 2026-04-25 08:32 | 40.05178 | 71.17676 | 33155 ft | 475 kts | 342° |
| 2026-04-25 08:32 | 40.11627 | 71.15605 | 33146 ft | 476 kts | 342° |
| 2026-04-25 08:33 | 40.18026 | 71.13561 | 33119 ft | 476 kts | 342° |
| 2026-04-25 08:33 | 40.24484 | 71.11511 | 33108 ft | 477 kts | 342° |
| 2026-04-25 08:34 | 40.30934 | 71.09455 | 33077 ft | 476 kts | 342° |
| 2026-04-25 08:34 | 40.37375 | 71.07383 | 33071 ft | 475 kts | 342° |
| 2026-04-25 08:35 | 40.43756 | 71.05322 | 33084 ft | 475 kts | 342° |
| 2026-04-25 08:35 | 40.50054 | 71.02835 | 33055 ft | 470 kts | 336° |
| 2026-04-25 08:36 | 40.56169 | 70.99773 | 33067 ft | 469 kts | 335° |
| 2026-04-25 08:36 | 40.62277 | 70.96709 | 33073 ft | 469 kts | 336° |
| 2026-04-25 08:37 | 40.68379 | 70.93701 | 33079 ft | 470 kts | 336° |
| 2026-04-25 08:37 | 40.74514 | 70.90690 | 33078 ft | 470 kts | 336° |
| 2026-04-25 08:38 | 40.80666 | 70.87665 | 33101 ft | 471 kts | 337° |
| 2026-04-25 08:38 | 40.86775 | 70.84653 | 33111 ft | 471 kts | 337° |
| 2026-04-25 08:39 | 40.92917 | 70.81619 | 33130 ft | 471 kts | 337° |
| 2026-04-25 08:39 | 40.99067 | 70.78574 | 33166 ft | 471 kts | 337° |
| 2026-04-25 08:40 | 41.05187 | 70.75537 | 33165 ft | 472 kts | 337° |
| 2026-04-25 08:40 | 41.11352 | 70.72471 | 33194 ft | 472 kts | 337° |
| 2026-04-25 08:41 | 41.17361 | 70.68994 | 33206 ft | 469 kts | 332° |
| 2026-04-25 08:41 | 41.23136 | 70.65066 | 33193 ft | 469 kts | 331° |
| 2026-04-25 08:42 | 41.28945 | 70.61095 | 33208 ft | 469 kts | 331° |
| 2026-04-25 08:42 | 41.34773 | 70.57169 | 33190 ft | 469 kts | 331° |
| 2026-04-25 08:43 | 41.40610 | 70.53258 | 33189 ft | 468 kts | 331° |
| 2026-04-25 08:43 | 41.46396 | 70.49375 | 33212 ft | 468 kts | 331° |
| 2026-04-25 08:44 | 41.52216 | 70.45459 | 33179 ft | 468 kts | 331° |
| 2026-04-25 08:44 | 41.58000 | 70.41558 | 33182 ft | 467 kts | 331° |
| 2026-04-25 08:45 | 41.63816 | 70.37625 | 33191 ft | 467 kts | 331° |
| 2026-04-25 08:45 | 41.69630 | 70.33688 | 33191 ft | 468 kts | 331° |
| 2026-04-25 08:46 | 41.75403 | 70.29771 | 33173 ft | 467 kts | 331° |
| 2026-04-25 08:46 | 41.81208 | 70.25824 | 33181 ft | 467 kts | 331° |
| 2026-04-25 08:47 | 41.86954 | 70.21750 | 33161 ft | 466 kts | 326° |
| 2026-04-25 08:47 | 41.92071 | 70.16479 | 33157 ft | 463 kts | 316° |
| 2026-04-25 08:48 | 41.96508 | 70.10213 | 33154 ft | 462 kts | 311° |
| 2026-04-25 08:48 | 42.00801 | 70.03877 | 33135 ft | 461 kts | 311° |
| 2026-04-25 08:49 | 42.05143 | 69.97520 | 33132 ft | 462 kts | 311° |
| 2026-04-25 08:49 | 42.09514 | 69.91141 | 33105 ft | 462 kts | 311° |
| 2026-04-25 08:50 | 42.13842 | 69.84814 | 33094 ft | 462 kts | 311° |
| 2026-04-25 08:50 | 42.18019 | 69.78246 | 33088 ft | 460 kts | 306° |
| 2026-04-25 08:51 | 42.21863 | 69.71402 | 33081 ft | 459 kts | 306° |
| 2026-04-25 08:51 | 42.25732 | 69.64533 | 33072 ft | 459 kts | 306° |
| 2026-04-25 08:52 | 42.29614 | 69.57665 | 33077 ft | 459 kts | 306° |
| 2026-04-25 08:52 | 42.33495 | 69.50787 | 33075 ft | 459 kts | 306° |
| 2026-04-25 08:53 | 42.37543 | 69.44183 | 33082 ft | 460 kts | 313° |
| 2026-04-25 08:53 | 42.42394 | 69.38539 | 33083 ft | 461 kts | 320° |
| 2026-04-25 08:54 | 42.47472 | 69.33199 | 33046 ft | 461 kts | 320° |
| 2026-04-25 08:54 | 42.52516 | 69.27835 | 33062 ft | 460 kts | 320° |
| 2026-04-25 08:55 | 42.57509 | 69.22481 | 33044 ft | 460 kts | 320° |
| 2026-04-25 08:55 | 42.62537 | 69.17072 | 33046 ft | 460 kts | 319° |
| 2026-04-25 08:56 | 42.67558 | 69.11660 | 33044 ft | 460 kts | 319° |
| 2026-04-25 08:56 | 42.72572 | 69.06245 | 33036 ft | 460 kts | 319° |
| 2026-04-25 08:57 | 42.77519 | 69.00798 | 33032 ft | 459 kts | 316° |
| 2026-04-25 08:57 | 42.82258 | 68.94971 | 33035 ft | 458 kts | 316° |
| 2026-04-25 08:58 | 42.87012 | 68.89167 | 33039 ft | 459 kts | 319° |
| 2026-04-25 08:58 | 42.92278 | 68.84280 | 33030 ft | 462 kts | 329° |
| 2026-04-25 08:59 | 42.98091 | 68.80455 | 33033 ft | 463 kts | 332° |
| 2026-04-25 08:59 | 43.03943 | 68.76704 | 33039 ft | 464 kts | 332° |
| 2026-04-25 09:00 | 43.09745 | 68.72931 | 33037 ft | 465 kts | 332° |
| 2026-04-25 09:00 | 43.15586 | 68.69102 | 33046 ft | 465 kts | 332° |
| 2026-04-25 09:01 | 43.21421 | 68.65268 | 33051 ft | 465 kts | 332° |
| 2026-04-25 09:01 | 43.27238 | 68.61438 | 33048 ft | 465 kts | 332° |
| 2026-04-25 09:02 | 43.33072 | 68.57553 | 33047 ft | 465 kts | 329° |
| 2026-04-25 09:02 | 43.38642 | 68.53065 | 33049 ft | 463 kts | 326° |
| 2026-04-25 09:03 | 43.44104 | 68.48433 | 33047 ft | 463 kts | 326° |
| 2026-04-25 09:03 | 43.49620 | 68.43825 | 33047 ft | 463 kts | 326° |
| 2026-04-25 09:04 | 43.55154 | 68.39234 | 33043 ft | 464 kts | 326° |
| 2026-04-25 09:04 | 43.60691 | 68.34748 | 33035 ft | 466 kts | 331° |
| 2026-04-25 09:05 | 43.66866 | 68.31831 | 33041 ft | 472 kts | 345° |
| 2026-04-25 09:05 | 43.73422 | 68.30725 | 33055 ft | 476 kts | 352° |
| 2026-04-25 09:06 | 43.80034 | 68.29929 | 33052 ft | 476 kts | 351° |
| 2026-04-25 09:06 | 43.86595 | 68.29079 | 33056 ft | 476 kts | 351° |
| 2026-04-25 09:07 | 43.93193 | 68.28185 | 33039 ft | 476 kts | 351° |
| 2026-04-25 09:07 | 43.99806 | 68.27276 | 33040 ft | 476 kts | 351° |
| 2026-04-25 09:08 | 44.06396 | 68.26372 | 33030 ft | 476 kts | 351° |
| 2026-04-25 09:08 | 44.12995 | 68.25466 | 33029 ft | 477 kts | 351° |
| 2026-04-25 09:09 | 44.19576 | 68.24569 | 33018 ft | 477 kts | 351° |
| 2026-04-25 09:09 | 44.26197 | 68.23674 | 33019 ft | 478 kts | 351° |
| 2026-04-25 09:10 | 44.32821 | 68.22774 | 33003 ft | 478 kts | 351° |
| 2026-04-25 09:10 | 44.39457 | 68.21871 | 32998 ft | 479 kts | 351° |
| 2026-04-25 09:11 | 44.49365 | 68.20514 | 32999 ft | 479 kts | 350° |
| 2026-04-25 09:11 | 44.56020 | 68.19591 | 32989 ft | 480 kts | 350° |
| 2026-04-25 09:12 | 44.62679 | 68.18665 | 32987 ft | 480 kts | 350° |
| 2026-04-25 09:12 | 44.69293 | 68.17744 | 32996 ft | 480 kts | 350° |
| 2026-04-25 09:13 | 44.75964 | 68.16813 | 32983 ft | 481 kts | 350° |
| 2026-04-25 09:13 | 44.82626 | 68.15882 | 32991 ft | 481 kts | 350° |
| 2026-04-25 09:14 | 44.89290 | 68.14948 | 32987 ft | 481 kts | 350° |
| 2026-04-25 09:14 | 44.95961 | 68.14011 | 32991 ft | 481 kts | 350° |
| 2026-04-25 09:15 | 45.02583 | 68.13078 | 32985 ft | 481 kts | 350° |
| 2026-04-25 09:15 | 45.09259 | 68.12136 | 32980 ft | 481 kts | 350° |
| 2026-04-25 09:16 | 45.15920 | 68.11194 | 32984 ft | 481 kts | 350° |
| 2026-04-25 09:16 | 45.22588 | 68.10248 | 32977 ft | 481 kts | 350° |
| 2026-04-25 09:17 | 45.32544 | 68.08832 | 32987 ft | 481 kts | 349° |
| 2026-04-25 09:18 | 45.39221 | 68.07880 | 32976 ft | 481 kts | 349° |
| 2026-04-25 09:18 | 45.45893 | 68.06926 | 33002 ft | 481 kts | 349° |
| 2026-04-25 09:19 | 45.51434 | 68.06132 | 32987 ft | 481 kts | 349° |
| 2026-04-25 09:19 | 45.58108 | 68.05173 | 32976 ft | 481 kts | 349° |
| 2026-04-25 09:20 | 45.65858 | 68.04058 | 32999 ft | 481 kts | 349° |
| 2026-04-25 09:20 | 45.71409 | 68.03257 | 32987 ft | 482 kts | 349° |
| 2026-04-25 09:21 | 45.78108 | 68.02287 | 32976 ft | 482 kts | 349° |
| 2026-04-25 09:21 | 45.84739 | 68.01326 | 32975 ft | 482 kts | 349° |
| 2026-04-25 09:22 | 45.91416 | 68.00355 | 32969 ft | 483 kts | 349° |
| 2026-04-25 09:22 | 45.98120 | 67.99379 | 32969 ft | 483 kts | 349° |
| 2026-04-25 09:23 | 46.04816 | 67.98401 | 32969 ft | 483 kts | 349° |
| 2026-04-25 09:23 | 46.11471 | 67.97427 | 32971 ft | 483 kts | 349° |
| 2026-04-25 09:24 | 46.18167 | 67.96444 | 32964 ft | 484 kts | 349° |
| 2026-04-25 09:24 | 46.24875 | 67.95457 | 32959 ft | 484 kts | 349° |
| 2026-04-25 09:25 | 46.31586 | 67.94467 | 32959 ft | 485 kts | 349° |
| 2026-04-25 09:25 | 46.38276 | 67.93479 | 32958 ft | 485 kts | 349° |
| 2026-04-25 09:26 | 46.45015 | 67.92480 | 32963 ft | 485 kts | 349° |
| 2026-04-25 09:26 | 46.51747 | 67.91481 | 32961 ft | 486 kts | 348° |
| 2026-04-25 09:27 | 46.58449 | 67.90576 | 32950 ft | 487 kts | 350° |
| 2026-04-25 09:27 | 46.65235 | 67.89930 | 32949 ft | 488 kts | 351° |
| 2026-04-25 09:28 | 46.72032 | 67.89293 | 32960 ft | 489 kts | 350° |
| 2026-04-25 09:28 | 46.78822 | 67.88610 | 32945 ft | 488 kts | 350° |
| 2026-04-25 09:29 | 46.85596 | 67.87913 | 32952 ft | 488 kts | 350° |
| 2026-04-25 09:29 | 46.92325 | 67.87221 | 32958 ft | 487 kts | 350° |
| 2026-04-25 09:30 | 46.99094 | 67.86525 | 32942 ft | 487 kts | 350° |
| 2026-04-25 09:30 | 47.05845 | 67.85704 | 32944 ft | 485 kts | 348° |
| 2026-04-25 09:31 | 47.12561 | 67.84719 | 32939 ft | 485 kts | 348° |
| 2026-04-25 09:31 | 47.19277 | 67.83736 | 32939 ft | 484 kts | 348° |
| 2026-04-25 09:32 | 47.25953 | 67.82785 | 32942 ft | 484 kts | 348° |
| 2026-04-25 09:32 | 47.32668 | 67.81835 | 32939 ft | 484 kts | 348° |
| 2026-04-25 09:33 | 47.39394 | 67.80881 | 32948 ft | 485 kts | 348° |
| 2026-04-25 09:33 | 47.46117 | 67.79924 | 32940 ft | 485 kts | 348° |
| 2026-04-25 09:34 | 47.52793 | 67.78971 | 32941 ft | 486 kts | 348° |
| 2026-04-25 09:34 | 47.59527 | 67.78007 | 32946 ft | 486 kts | 348° |
| 2026-04-25 09:35 | 47.66268 | 67.77039 | 32940 ft | 487 kts | 348° |
| 2026-04-25 09:35 | 47.73015 | 67.76005 | 32940 ft | 485 kts | 345° |
| 2026-04-25 09:36 | 47.79609 | 67.74143 | 32943 ft | 481 kts | 342° |
| 2026-04-25 09:36 | 47.86159 | 67.72042 | 32936 ft | 482 kts | 342° |
| 2026-04-25 09:37 | 47.92732 | 67.69990 | 32943 ft | 482 kts | 342° |
| 2026-04-25 09:37 | 47.99279 | 67.68000 | 32965 ft | 483 kts | 342° |
| 2026-04-25 09:38 | 48.05889 | 67.66000 | 32950 ft | 485 kts | 342° |
| 2026-04-25 09:38 | 48.12519 | 67.63987 | 32942 ft | 485 kts | 342° |
| 2026-04-25 09:39 | 48.19140 | 67.61969 | 32943 ft | 486 kts | 342° |
| 2026-04-25 09:39 | 48.25734 | 67.59951 | 32939 ft | 487 kts | 342° |
| 2026-04-25 09:40 | 48.35707 | 67.56892 | 32932 ft | 488 kts | 342° |
| 2026-04-25 09:40 | 48.42366 | 67.54842 | 32980 ft | 488 kts | 342° |
| 2026-04-25 09:41 | 48.49076 | 67.52960 | 32948 ft | 491 kts | 344° |
| 2026-04-25 09:41 | 48.55783 | 67.51228 | 32937 ft | 491 kts | 344° |
| 2026-04-25 09:42 | 48.62522 | 67.49473 | 32931 ft | 491 kts | 344° |
| 2026-04-25 09:42 | 48.69271 | 67.47679 | 32939 ft | 492 kts | 344° |
| 2026-04-25 09:43 | 48.75966 | 67.45883 | 32932 ft | 491 kts | 343° |
| 2026-04-25 09:43 | 48.82702 | 67.44071 | 32934 ft | 491 kts | 343° |
| 2026-04-25 09:44 | 48.89447 | 67.42251 | 32938 ft | 491 kts | 343° |
| 2026-04-25 09:44 | 48.96138 | 67.40444 | 32928 ft | 490 kts | 343° |
| 2026-04-25 09:45 | 49.02852 | 67.38625 | 32918 ft | 489 kts | 343° |
| 2026-04-25 09:45 | 49.09568 | 67.36799 | 32940 ft | 489 kts | 344° |
| 2026-04-25 09:46 | 49.16222 | 67.34986 | 32927 ft | 488 kts | 344° |
| 2026-04-25 09:46 | 49.22910 | 67.33159 | 32914 ft | 488 kts | 344° |
| 2026-04-25 09:47 | 49.29602 | 67.31326 | 32909 ft | 488 kts | 344° |
| 2026-04-25 09:47 | 49.36280 | 67.29491 | 32910 ft | 488 kts | 344° |
| 2026-04-25 09:48 | 49.42962 | 67.27650 | 32917 ft | 488 kts | 344° |
| 2026-04-25 09:48 | 49.49648 | 67.25803 | 32914 ft | 488 kts | 344° |
| 2026-04-25 09:49 | 49.56306 | 67.23958 | 32907 ft | 489 kts | 344° |
| 2026-04-25 09:49 | 49.63017 | 67.22093 | 32893 ft | 490 kts | 344° |
| 2026-04-25 09:50 | 49.69738 | 67.20221 | 32890 ft | 490 kts | 344° |
| 2026-04-25 09:50 | 49.76447 | 67.18347 | 32932 ft | 491 kts | 344° |
| 2026-04-25 09:51 | 49.83149 | 67.16468 | 32887 ft | 492 kts | 344° |
| 2026-04-25 09:51 | 49.89899 | 67.14574 | 32886 ft | 492 kts | 344° |
| 2026-04-25 09:52 | 49.96638 | 67.12676 | 32878 ft | 492 kts | 344° |
| 2026-04-25 09:52 | 50.03368 | 67.10710 | 32882 ft | 492 kts | 343° |
| 2026-04-25 09:53 | 50.10092 | 67.08695 | 32873 ft | 492 kts | 343° |
| 2026-04-25 09:53 | 50.16769 | 67.06698 | 32878 ft | 491 kts | 343° |
| 2026-04-25 09:54 | 50.23494 | 67.04689 | 32897 ft | 492 kts | 344° |
| 2026-04-25 09:54 | 50.30226 | 67.02643 | 32868 ft | 491 kts | 342° |
| 2026-04-25 09:55 | 50.36670 | 66.99359 | 32871 ft | 483 kts | 332° |
| 2026-04-25 09:55 | 50.42871 | 66.95400 | 32869 ft | 483 kts | 332° |
| 2026-04-25 09:56 | 50.49117 | 66.91420 | 32872 ft | 486 kts | 333° |
| 2026-04-25 09:56 | 50.55421 | 66.87443 | 32874 ft | 488 kts | 333° |
| 2026-04-25 09:57 | 50.61716 | 66.83486 | 32877 ft | 491 kts | 333° |
| 2026-04-25 09:57 | 50.68078 | 66.79479 | 32889 ft | 493 kts | 333° |
| 2026-04-25 09:58 | 50.74456 | 66.75448 | 32874 ft | 494 kts | 333° |
| 2026-04-25 09:58 | 50.80859 | 66.71388 | 32866 ft | 495 kts | 333° |
| 2026-04-25 09:59 | 50.87225 | 66.67339 | 32867 ft | 495 kts | 333° |
| 2026-04-25 09:59 | 50.93632 | 66.63252 | 32873 ft | 496 kts | 333° |
| 2026-04-25 10:00 | 51.00042 | 66.59149 | 32877 ft | 496 kts | 333° |
| 2026-04-25 10:00 | 51.06415 | 66.55058 | 32869 ft | 497 kts | 333° |
| 2026-04-25 10:01 | 51.12828 | 66.50930 | 32878 ft | 498 kts | 332° |
| 2026-04-25 10:01 | 51.19270 | 66.46769 | 32871 ft | 500 kts | 332° |
| 2026-04-25 10:02 | 51.25739 | 66.42578 | 32862 ft | 502 kts | 332° |
| 2026-04-25 10:02 | 51.32214 | 66.38372 | 32860 ft | 503 kts | 332° |
| 2026-04-25 10:03 | 51.38666 | 66.34168 | 32846 ft | 505 kts | 332° |
| 2026-04-25 10:03 | 51.45166 | 66.29921 | 32854 ft | 504 kts | 332° |
| 2026-04-25 10:04 | 51.51666 | 66.25659 | 32851 ft | 504 kts | 332° |
| 2026-04-25 10:04 | 51.58147 | 66.21399 | 32852 ft | 502 kts | 332° |
| 2026-04-25 10:05 | 51.64566 | 66.17164 | 32854 ft | 501 kts | 332° |
| 2026-04-25 10:05 | 51.71018 | 66.12893 | 32854 ft | 500 kts | 332° |
| 2026-04-25 10:06 | 51.77464 | 66.08614 | 32851 ft | 500 kts | 332° |
| 2026-04-25 10:06 | 51.83906 | 66.04324 | 32858 ft | 500 kts | 332° |
| 2026-04-25 10:07 | 51.90294 | 66.00058 | 32863 ft | 499 kts | 332° |
| 2026-04-25 10:07 | 51.96717 | 65.95754 | 32853 ft | 499 kts | 332° |
| 2026-04-25 10:08 | 52.03135 | 65.91441 | 32867 ft | 499 kts | 331° |
| 2026-04-25 10:08 | 52.08474 | 65.87842 | 32855 ft | 499 kts | 331° |
| 2026-04-25 10:09 | 52.15928 | 65.82802 | 32852 ft | 499 kts | 331° |
| 2026-04-25 10:09 | 52.22346 | 65.78449 | 32859 ft | 499 kts | 331° |
| 2026-04-25 10:10 | 52.27706 | 65.74802 | 32853 ft | 502 kts | 330° |
| 2026-04-25 10:10 | 52.34155 | 65.70399 | 32856 ft | 503 kts | 330° |
| 2026-04-25 10:11 | 52.40630 | 65.65966 | 32860 ft | 504 kts | 330° |
| 2026-04-25 10:11 | 52.47082 | 65.61537 | 32897 ft | 506 kts | 330° |
| 2026-04-25 10:12 | 52.53580 | 65.57063 | 32851 ft | 504 kts | 330° |
| 2026-04-25 10:13 | 52.63224 | 65.50396 | 32835 ft | 498 kts | 330° |
| 2026-04-25 10:13 | 52.69559 | 65.45994 | 32882 ft | 496 kts | 330° |
| 2026-04-25 10:14 | 52.75930 | 65.41555 | 32850 ft | 496 kts | 330° |
| 2026-04-25 10:14 | 52.82301 | 65.37101 | 32850 ft | 496 kts | 330° |
| 2026-04-25 10:15 | 52.88627 | 65.32662 | 32851 ft | 497 kts | 330° |
| 2026-04-25 10:15 | 52.95000 | 65.28175 | 32883 ft | 499 kts | 329° |
| 2026-04-25 10:16 | 53.01405 | 65.23650 | 32860 ft | 501 kts | 329° |
| 2026-04-25 10:16 | 53.07829 | 65.19100 | 32844 ft | 502 kts | 329° |
| 2026-04-25 10:17 | 53.14217 | 65.14561 | 32850 ft | 502 kts | 329° |
| 2026-04-25 10:17 | 53.20657 | 65.09970 | 32852 ft | 503 kts | 329° |
| 2026-04-25 10:18 | 53.27091 | 65.05369 | 32848 ft | 502 kts | 329° |
| 2026-04-25 10:18 | 53.33500 | 65.00771 | 32846 ft | 501 kts | 329° |
| 2026-04-25 10:19 | 53.39858 | 64.96193 | 32894 ft | 499 kts | 328° |
| 2026-04-25 10:19 | 53.46246 | 64.91577 | 32848 ft | 499 kts | 328° |
| 2026-04-25 10:20 | 53.52616 | 64.86959 | 32837 ft | 497 kts | 328° |
| 2026-04-25 10:20 | 53.58963 | 64.82343 | 32844 ft | 496 kts | 328° |
| 2026-04-25 10:21 | 53.65306 | 64.77716 | 32863 ft | 496 kts | 328° |
| 2026-04-25 10:21 | 53.71617 | 64.73095 | 32841 ft | 496 kts | 328° |
| 2026-04-25 10:22 | 53.77947 | 64.68443 | 32820 ft | 495 kts | 328° |
| 2026-04-25 10:22 | 53.84278 | 64.63778 | 32836 ft | 496 kts | 328° |
| 2026-04-25 10:23 | 53.90609 | 64.59098 | 32821 ft | 497 kts | 328° |
| 2026-04-25 10:23 | 53.96948 | 64.54396 | 32825 ft | 498 kts | 328° |
| 2026-04-25 10:24 | 54.03269 | 64.49692 | 32815 ft | 499 kts | 328° |
| 2026-04-25 10:24 | 54.09633 | 64.44939 | 32871 ft | 499 kts | 328° |
| 2026-04-25 10:25 | 54.15997 | 64.40170 | 32808 ft | 500 kts | 328° |
| 2026-04-25 10:25 | 54.22361 | 64.35386 | 32810 ft | 499 kts | 328° |
| 2026-04-25 10:26 | 54.28718 | 64.30592 | 32808 ft | 499 kts | 327° |
| 2026-04-25 10:26 | 54.35298 | 64.26507 | 32827 ft | 511 kts | 338° |
| 2026-04-25 10:27 | 54.42295 | 64.24110 | 32797 ft | 516 kts | 341° |
| 2026-04-25 10:27 | 54.49352 | 64.21867 | 32788 ft | 515 kts | 341° |
| 2026-04-25 10:28 | 54.56395 | 64.19544 | 32792 ft | 514 kts | 341° |
| 2026-04-25 10:28 | 54.63417 | 64.17158 | 32800 ft | 515 kts | 340° |
| 2026-04-25 10:29 | 54.70417 | 64.14758 | 32777 ft | 515 kts | 340° |
| 2026-04-25 10:29 | 54.77464 | 64.12339 | 32779 ft | 516 kts | 340° |
| 2026-04-25 10:30 | 54.84507 | 64.09918 | 32771 ft | 516 kts | 340° |
| 2026-04-25 10:30 | 54.91568 | 64.07481 | 32775 ft | 517 kts | 340° |
| 2026-04-25 10:31 | 54.98636 | 64.05033 | 32747 ft | 518 kts | 340° |
| 2026-04-25 10:31 | 55.05707 | 64.02576 | 32758 ft | 518 kts | 340° |
| 2026-04-25 10:32 | 55.12733 | 64.00126 | 32807 ft | 518 kts | 340° |
| 2026-04-25 10:32 | 55.19811 | 63.97646 | 32762 ft | 519 kts | 340° |
| 2026-04-25 10:33 | 55.26896 | 63.95158 | 32751 ft | 519 kts | 340° |
| 2026-04-25 10:33 | 55.33993 | 63.92656 | 32751 ft | 519 kts | 340° |
| 2026-04-25 10:34 | 55.41090 | 63.90143 | 32777 ft | 520 kts | 341° |
| 2026-04-25 10:34 | 55.48185 | 63.87622 | 32752 ft | 520 kts | 341° |
| 2026-04-25 10:35 | 55.55245 | 63.85107 | 32743 ft | 521 kts | 341° |
| 2026-04-25 10:35 | 55.62347 | 63.82570 | 32743 ft | 520 kts | 341° |
| 2026-04-25 10:36 | 55.69452 | 63.80019 | 32735 ft | 521 kts | 341° |
| 2026-04-25 10:36 | 55.76576 | 63.77447 | 32737 ft | 520 kts | 340° |
| 2026-04-25 10:37 | 55.83496 | 63.74256 | 32730 ft | 516 kts | 336° |
| 2026-04-25 10:37 | 55.90397 | 63.70732 | 32716 ft | 515 kts | 336° |
| 2026-04-25 10:38 | 55.97313 | 63.67224 | 32729 ft | 516 kts | 336° |
| 2026-04-25 10:38 | 56.04203 | 63.63776 | 32725 ft | 517 kts | 336° |
| 2026-04-25 10:39 | 56.11139 | 63.60306 | 32718 ft | 517 kts | 336° |
| 2026-04-25 10:39 | 56.18087 | 63.56810 | 32739 ft | 518 kts | 336° |
| 2026-04-25 10:40 | 56.25050 | 63.53291 | 32719 ft | 520 kts | 336° |
| 2026-04-25 10:40 | 56.31996 | 63.49759 | 32719 ft | 522 kts | 336° |
| 2026-04-25 10:41 | 56.38990 | 63.46156 | 32710 ft | 523 kts | 336° |
| 2026-04-25 10:41 | 56.45994 | 63.42535 | 32712 ft | 524 kts | 336° |
| 2026-04-25 10:42 | 56.53003 | 63.38902 | 32705 ft | 524 kts | 336° |
| 2026-04-25 10:42 | 56.60018 | 63.35254 | 32712 ft | 524 kts | 336° |
| 2026-04-25 10:43 | 56.66997 | 63.31614 | 32700 ft | 524 kts | 336° |
| 2026-04-25 10:43 | 56.74006 | 63.27953 | 32715 ft | 524 kts | 336° |
| 2026-04-25 10:44 | 56.81025 | 63.24273 | 32706 ft | 525 kts | 336° |
| 2026-04-25 10:44 | 56.88048 | 63.20575 | 32691 ft | 524 kts | 336° |
| 2026-04-25 10:45 | 56.95059 | 63.16869 | 32686 ft | 524 kts | 336° |
| 2026-04-25 10:45 | 57.02070 | 63.13145 | 32665 ft | 524 kts | 337° |
| 2026-04-25 10:46 | 57.09027 | 63.09439 | 32683 ft | 523 kts | 337° |
| 2026-04-25 10:46 | 57.16021 | 63.05698 | 32683 ft | 523 kts | 336° |
| 2026-04-25 10:47 | 57.23002 | 63.01948 | 32678 ft | 522 kts | 336° |
| 2026-04-25 10:47 | 57.30007 | 62.98168 | 32675 ft | 523 kts | 337° |
| 2026-04-25 10:48 | 57.36996 | 62.94384 | 32664 ft | 522 kts | 337° |
| 2026-04-25 10:48 | 57.43920 | 62.90621 | 32666 ft | 522 kts | 337° |
| 2026-04-25 10:49 | 57.50900 | 62.86812 | 32665 ft | 522 kts | 337° |
| 2026-04-25 10:49 | 57.57888 | 62.82980 | 32652 ft | 523 kts | 337° |
| 2026-04-25 10:50 | 57.64870 | 62.79142 | 32663 ft | 523 kts | 337° |
| 2026-04-25 10:50 | 57.71902 | 62.75775 | 32652 ft | 528 kts | 345° |
| 2026-04-25 10:51 | 57.79269 | 62.74624 | 32714 ft | 534 kts | 354° |
| 2026-04-25 10:51 | 57.86709 | 62.74459 | 32658 ft | 535 kts | 355° |
| 2026-04-25 10:52 | 57.94145 | 62.74263 | 32649 ft | 534 kts | 355° |
| 2026-04-25 10:52 | 58.01576 | 62.73972 | 32644 ft | 533 kts | 354° |
| 2026-04-25 10:53 | 58.09003 | 62.73642 | 32647 ft | 532 kts | 354° |
| 2026-04-25 10:53 | 58.16366 | 62.73317 | 32648 ft | 533 kts | 354° |
| 2026-04-25 10:54 | 58.23780 | 62.72998 | 32643 ft | 532 kts | 354° |
| 2026-04-25 10:54 | 58.31194 | 62.72680 | 32644 ft | 532 kts | 354° |
| 2026-04-25 10:55 | 58.38598 | 62.72360 | 32645 ft | 531 kts | 354° |
| 2026-04-25 10:55 | 58.45957 | 62.72038 | 32647 ft | 532 kts | 355° |
| 2026-04-25 10:56 | 58.53366 | 62.71721 | 32641 ft | 531 kts | 355° |
| 2026-04-25 10:56 | 58.60774 | 62.71930 | 32613 ft | 532 kts | 358° |
| 2026-04-25 10:57 | 58.68170 | 62.72498 | 32638 ft | 532 kts | 358° |
| 2026-04-25 10:57 | 58.75572 | 62.73038 | 32667 ft | 532 kts | 358° |
| 2026-04-25 10:58 | 58.82996 | 62.73508 | 32648 ft | 532 kts | 358° |
| 2026-04-25 10:58 | 58.90370 | 62.73954 | 32645 ft | 532 kts | 358° |
| 2026-04-25 10:59 | 58.97779 | 62.74408 | 32643 ft | 532 kts | 358° |
| 2026-04-25 10:59 | 59.05139 | 62.74865 | 32682 ft | 531 kts | 358° |
| 2026-04-25 11:00 | 59.12533 | 62.75328 | 32645 ft | 531 kts | 358° |
| 2026-04-25 11:00 | 59.18724 | 62.75717 | 32638 ft | 531 kts | 358° |
| 2026-04-25 11:01 | 59.26105 | 62.76182 | 32645 ft | 530 kts | 358° |
| 2026-04-25 11:01 | 59.33438 | 62.76618 | 32640 ft | 529 kts | 356° |
| 2026-04-25 11:02 | 59.40714 | 62.75150 | 32641 ft | 520 kts | 343° |
| 2026-04-25 11:02 | 59.47550 | 62.71164 | 32637 ft | 512 kts | 334° |
| 2026-04-25 11:03 | 59.54232 | 62.66210 | 32639 ft | 513 kts | 334° |
| 2026-04-25 11:03 | 59.60936 | 62.61276 | 32637 ft | 514 kts | 334° |
| 2026-04-25 11:04 | 59.67632 | 62.56420 | 32646 ft | 516 kts | 334° |
| 2026-04-25 11:04 | 59.74394 | 62.51522 | 32642 ft | 517 kts | 334° |
| 2026-04-25 11:05 | 59.81147 | 62.46600 | 32624 ft | 517 kts | 334° |
| 2026-04-25 11:05 | 59.87897 | 62.41655 | 32625 ft | 517 kts | 334° |
| 2026-04-25 11:06 | 59.94620 | 62.36717 | 32646 ft | 517 kts | 335° |
| 2026-04-25 11:06 | 60.01415 | 62.31721 | 32623 ft | 517 kts | 335° |
| 2026-04-25 11:07 | 60.08120 | 62.26768 | 32618 ft | 516 kts | 335° |
| 2026-04-25 11:07 | 60.14850 | 62.21772 | 32615 ft | 515 kts | 335° |
| 2026-04-25 11:08 | 60.21567 | 62.16725 | 32633 ft | 515 kts | 335° |
| 2026-04-25 11:08 | 60.28238 | 62.11687 | 32613 ft | 514 kts | 335° |
| 2026-04-25 11:09 | 60.34954 | 62.06615 | 32592 ft | 514 kts | 335° |
| 2026-04-25 11:09 | 60.41636 | 62.01576 | 32599 ft | 512 kts | 334° |
| 2026-04-25 11:10 | 60.48311 | 61.96513 | 32634 ft | 511 kts | 335° |
| 2026-04-25 11:10 | 60.54948 | 61.91453 | 32614 ft | 511 kts | 335° |
| 2026-04-25 11:11 | 60.61613 | 61.86351 | 32603 ft | 511 kts | 335° |
| 2026-04-25 11:11 | 60.68267 | 61.81233 | 32596 ft | 510 kts | 335° |
| 2026-04-25 11:12 | 60.74915 | 61.76098 | 32601 ft | 510 kts | 335° |
| 2026-04-25 11:12 | 60.81523 | 61.70970 | 32599 ft | 510 kts | 335° |
| 2026-04-25 11:13 | 60.88156 | 61.65801 | 32592 ft | 510 kts | 335° |
| 2026-04-25 11:13 | 60.94802 | 61.60597 | 32593 ft | 509 kts | 335° |
| 2026-04-25 11:14 | 61.01380 | 61.55426 | 32587 ft | 509 kts | 335° |
| 2026-04-25 11:14 | 61.07996 | 61.50194 | 32594 ft | 509 kts | 335° |
| 2026-04-25 11:15 | 61.14614 | 61.44933 | 32587 ft | 509 kts | 335° |
| 2026-04-25 11:15 | 61.21192 | 61.39681 | 32577 ft | 508 kts | 335° |
| 2026-04-25 11:16 | 61.31087 | 61.31741 | 32580 ft | 507 kts | 335° |
| 2026-04-25 11:16 | 61.37668 | 61.26428 | 32580 ft | 507 kts | 335° |
| 2026-04-25 11:17 | 61.44258 | 61.21086 | 32576 ft | 507 kts | 335° |
| 2026-04-25 11:17 | 61.50793 | 61.15762 | 32569 ft | 506 kts | 335° |
| 2026-04-25 11:18 | 61.57365 | 61.10381 | 32559 ft | 506 kts | 335° |
| 2026-04-25 11:18 | 61.63926 | 61.04984 | 32558 ft | 506 kts | 335° |
| 2026-04-25 11:19 | 61.70454 | 60.99595 | 32559 ft | 506 kts | 335° |
| 2026-04-25 11:19 | 61.77016 | 60.94178 | 32548 ft | 507 kts | 335° |
| 2026-04-25 11:20 | 61.83599 | 60.88722 | 32558 ft | 507 kts | 335° |
| 2026-04-25 11:20 | 61.90147 | 60.83265 | 32571 ft | 507 kts | 335° |
| 2026-04-25 11:21 | 61.96714 | 60.77764 | 32535 ft | 507 kts | 335° |
| 2026-04-25 11:21 | 62.03291 | 60.72234 | 32553 ft | 507 kts | 335° |
| 2026-04-25 11:22 | 62.08746 | 60.67600 | 32553 ft | 507 kts | 335° |
| 2026-04-25 11:22 | 62.16360 | 60.61056 | 32544 ft | 507 kts | 335° |
| 2026-04-25 11:23 | 62.22908 | 60.55400 | 32538 ft | 507 kts | 335° |
| 2026-04-25 11:23 | 62.29449 | 60.49729 | 32543 ft | 507 kts | 335° |
| 2026-04-25 11:24 | 62.35993 | 60.44031 | 32533 ft | 506 kts | 335° |
| 2026-04-25 11:24 | 62.42522 | 60.38321 | 32534 ft | 506 kts | 335° |
| 2026-04-25 11:25 | 62.49025 | 60.32605 | 32543 ft | 506 kts | 335° |
| 2026-04-25 11:25 | 62.55543 | 60.26848 | 32526 ft | 506 kts | 335° |
| 2026-04-25 11:26 | 62.62029 | 60.21094 | 32521 ft | 505 kts | 335° |
| 2026-04-25 11:26 | 62.68538 | 60.15291 | 32524 ft | 504 kts | 335° |
| 2026-04-25 11:27 | 62.75037 | 60.09469 | 32544 ft | 504 kts | 335° |
| 2026-04-25 11:27 | 62.80425 | 60.04621 | 32525 ft | 503 kts | 335° |
| 2026-04-25 11:28 | 62.87958 | 59.97811 | 32516 ft | 502 kts | 335° |
| 2026-04-25 11:28 | 62.94420 | 59.91940 | 32523 ft | 502 kts | 335° |
| 2026-04-25 11:29 | 63.00869 | 59.86049 | 32527 ft | 501 kts | 335° |
| 2026-04-25 11:29 | 63.07302 | 59.80146 | 32527 ft | 501 kts | 335° |
| 2026-04-25 11:30 | 63.13714 | 59.74238 | 32518 ft | 501 kts | 335° |
| 2026-04-25 11:30 | 63.20026 | 59.67780 | 32519 ft | 497 kts | 329° |
| 2026-04-25 11:31 | 63.26082 | 59.60338 | 32521 ft | 497 kts | 328° |
| 2026-04-25 11:31 | 63.32125 | 59.52808 | 32537 ft | 498 kts | 328° |
| 2026-04-25 11:32 | 63.38151 | 59.45345 | 32520 ft | 498 kts | 328° |
| 2026-04-25 11:32 | 63.44231 | 59.37830 | 32514 ft | 499 kts | 328° |
| 2026-04-25 11:33 | 63.50297 | 59.30301 | 32509 ft | 499 kts | 328° |
| 2026-04-25 11:33 | 63.56368 | 59.22726 | 32511 ft | 498 kts | 328° |
| 2026-04-25 11:34 | 63.62432 | 59.15118 | 32514 ft | 499 kts | 328° |
| 2026-04-25 11:34 | 63.68467 | 59.07507 | 32507 ft | 499 kts | 328° |
| 2026-04-25 11:35 | 63.74517 | 58.99844 | 32497 ft | 498 kts | 328° |
| 2026-04-25 11:35 | 63.80560 | 58.92148 | 32504 ft | 498 kts | 328° |
| 2026-04-25 11:36 | 63.86564 | 58.84465 | 32519 ft | 498 kts | 328° |
| 2026-04-25 11:36 | 63.92610 | 58.76688 | 32495 ft | 498 kts | 328° |
| 2026-04-25 11:37 | 63.98642 | 58.68892 | 32497 ft | 498 kts | 328° |
| 2026-04-25 11:37 | 64.04638 | 58.61103 | 32495 ft | 498 kts | 328° |
| 2026-04-25 11:38 | 64.10661 | 58.53243 | 32497 ft | 498 kts | 328° |
| 2026-04-25 11:38 | 64.16676 | 58.45339 | 32491 ft | 498 kts | 328° |
| 2026-04-25 11:39 | 64.22680 | 58.37401 | 32500 ft | 498 kts | 328° |
| 2026-04-25 11:39 | 64.28695 | 58.29412 | 32499 ft | 498 kts | 327° |
| 2026-04-25 11:40 | 64.34704 | 58.21432 | 32497 ft | 499 kts | 328° |
| 2026-04-25 11:40 | 64.40737 | 58.13692 | 32498 ft | 499 kts | 329° |
| 2026-04-25 11:41 | 64.46823 | 58.05907 | 32504 ft | 499 kts | 328° |
| 2026-04-25 11:41 | 64.52895 | 57.98051 | 32497 ft | 499 kts | 328° |
| 2026-04-25 11:42 | 64.58960 | 57.90141 | 32488 ft | 499 kts | 328° |
| 2026-04-25 11:42 | 64.65017 | 57.82204 | 32491 ft | 499 kts | 328° |
| 2026-04-25 11:43 | 64.71023 | 57.74264 | 32503 ft | 498 kts | 327° |
| 2026-04-25 11:43 | 64.76915 | 57.65718 | 32489 ft | 498 kts | 325° |
| 2026-04-25 11:44 | 64.82750 | 57.56962 | 32484 ft | 497 kts | 325° |
| 2026-04-25 11:44 | 64.88611 | 57.48238 | 32485 ft | 497 kts | 325° |
| 2026-04-25 11:45 | 64.94426 | 57.39608 | 32484 ft | 497 kts | 325° |
| 2026-04-25 11:45 | 65.00277 | 57.30887 | 32481 ft | 497 kts | 325° |
| 2026-04-25 11:46 | 65.06116 | 57.22128 | 32481 ft | 497 kts | 325° |
| 2026-04-25 11:46 | 65.11947 | 57.13338 | 32481 ft | 496 kts | 325° |
| 2026-04-25 11:47 | 65.17865 | 57.04773 | 32477 ft | 497 kts | 327° |
| 2026-04-25 11:47 | 65.23831 | 56.96437 | 32479 ft | 497 kts | 327° |
| 2026-04-25 11:48 | 65.29783 | 56.88001 | 32463 ft | 497 kts | 327° |
| 2026-04-25 11:48 | 65.35681 | 56.79531 | 32468 ft | 497 kts | 326° |
| 2026-04-25 11:49 | 65.40608 | 56.72421 | 32471 ft | 497 kts | 326° |
| 2026-04-25 11:49 | 65.47540 | 56.62352 | 32468 ft | 497 kts | 326° |
| 2026-04-25 11:50 | 65.53413 | 56.53736 | 32482 ft | 497 kts | 326° |
| 2026-04-25 11:50 | 65.59322 | 56.45019 | 32471 ft | 497 kts | 326° |
| 2026-04-25 11:51 | 65.64234 | 56.37741 | 32468 ft | 497 kts | 326° |
| 2026-04-25 11:51 | 65.70137 | 56.28953 | 32472 ft | 497 kts | 326° |
| 2026-04-25 11:52 | 65.75992 | 56.20189 | 32470 ft | 497 kts | 326° |
| 2026-04-25 11:52 | 65.81876 | 56.11335 | 32496 ft | 497 kts | 326° |
| 2026-04-25 11:53 | 65.87765 | 56.02425 | 32479 ft | 497 kts | 326° |
| 2026-04-25 11:53 | 65.93639 | 55.93488 | 32473 ft | 497 kts | 326° |
| 2026-04-25 11:54 | 65.99508 | 55.84509 | 32471 ft | 497 kts | 326° |
| 2026-04-25 11:55 | 66.08261 | 55.71026 | 32495 ft | 496 kts | 325° |
| 2026-04-25 11:55 | 66.14124 | 55.61936 | 32473 ft | 497 kts | 325° |
| 2026-04-25 11:56 | 66.19984 | 55.52833 | 32469 ft | 497 kts | 325° |
| 2026-04-25 11:56 | 66.25843 | 55.43724 | 32476 ft | 497 kts | 325° |
| 2026-04-25 11:57 | 66.31704 | 55.34562 | 32460 ft | 497 kts | 325° |
| 2026-04-25 11:57 | 66.37560 | 55.25348 | 32486 ft | 498 kts | 325° |
| 2026-04-25 11:58 | 66.43384 | 55.16128 | 32475 ft | 498 kts | 325° |
| 2026-04-25 11:58 | 66.49246 | 55.06800 | 32466 ft | 498 kts | 325° |
| 2026-04-25 11:59 | 66.55091 | 54.97443 | 32465 ft | 498 kts | 325° |
| 2026-04-25 11:59 | 66.60927 | 54.88049 | 32467 ft | 498 kts | 325° |
| 2026-04-25 12:00 | 66.69644 | 54.73917 | 32465 ft | 498 kts | 324° |
| 2026-04-25 12:01 | 66.78392 | 54.59614 | 32468 ft | 498 kts | 324° |
| 2026-04-25 12:01 | 66.84216 | 54.50020 | 32464 ft | 498 kts | 324° |
| 2026-04-25 12:02 | 66.92901 | 54.35618 | 32477 ft | 498 kts | 324° |
| 2026-04-25 12:02 | 66.98707 | 54.25917 | 32466 ft | 498 kts | 324° |
| 2026-04-25 12:03 | 67.04499 | 54.16140 | 32466 ft | 498 kts | 324° |
| 2026-04-25 12:03 | 67.10280 | 54.06310 | 32471 ft | 498 kts | 324° |
| 2026-04-25 12:04 | 67.16054 | 53.96443 | 32475 ft | 498 kts | 324° |
| 2026-04-25 12:04 | 67.21822 | 53.86533 | 32474 ft | 498 kts | 323° |
| 2026-04-25 12:05 | 67.27591 | 53.76560 | 32477 ft | 498 kts | 323° |
| 2026-04-25 12:05 | 67.33283 | 53.66470 | 32477 ft | 498 kts | 323° |
| 2026-04-25 12:06 | 67.38982 | 53.56228 | 32480 ft | 497 kts | 322° |
| 2026-04-25 12:06 | 67.44682 | 53.45953 | 32482 ft | 497 kts | 322° |
| 2026-04-25 12:07 | 67.50336 | 53.35719 | 32490 ft | 498 kts | 322° |
| 2026-04-25 12:07 | 67.56030 | 53.25353 | 32485 ft | 498 kts | 322° |
| 2026-04-25 12:08 | 67.61678 | 53.15013 | 32483 ft | 497 kts | 322° |
| 2026-04-25 12:08 | 67.67576 | 53.05423 | 32491 ft | 499 kts | 329° |
| 2026-04-25 12:09 | 67.73713 | 52.96830 | 32471 ft | 499 kts | 330° |
| 2026-04-25 12:09 | 67.79845 | 52.88222 | 32487 ft | 499 kts | 329° |
| 2026-04-25 12:10 | 67.85929 | 52.79512 | 32489 ft | 500 kts | 329° |
| 2026-04-25 12:10 | 67.92032 | 52.70666 | 32489 ft | 500 kts | 329° |
| 2026-04-25 12:11 | 67.98146 | 52.61745 | 32492 ft | 500 kts | 329° |
| 2026-04-25 12:11 | 68.04262 | 52.52774 | 32547 ft | 501 kts | 328° |
| 2026-04-25 12:12 | 68.09396 | 52.45199 | 32519 ft | 511 kts | 328° |
| 2026-04-25 12:12 | 68.13580 | 52.38999 | 32670 ft | 515 kts | 328° |
| 2026-04-25 12:12 | 68.16678 | 52.34394 | 32937 ft | 514 kts | 328° |
| 2026-04-25 12:13 | 68.19804 | 52.29735 | 33250 ft | 513 kts | 328° |
| 2026-04-25 12:13 | 68.22921 | 52.25074 | 33531 ft | 511 kts | 329° |
| 2026-04-25 12:13 | 68.26030 | 52.20408 | 33756 ft | 511 kts | 328° |
| 2026-04-25 12:13 | 68.29136 | 52.15731 | 33958 ft | 511 kts | 328° |
| 2026-04-25 12:14 | 68.32248 | 52.11031 | 34130 ft | 512 kts | 328° |
| 2026-04-25 12:14 | 68.35357 | 52.06319 | 34339 ft | 512 kts | 329° |
| 2026-04-25 12:14 | 68.41587 | 51.96832 | 34476 ft | 515 kts | 329° |
| 2026-04-25 12:15 | 68.47783 | 51.87343 | 34522 ft | 513 kts | 328° |
| 2026-04-25 12:15 | 68.53991 | 51.77817 | 34526 ft | 510 kts | 329° |
| 2026-04-25 12:16 | 68.60214 | 51.68358 | 34506 ft | 509 kts | 329° |
| 2026-04-25 12:16 | 68.66360 | 51.58969 | 34527 ft | 508 kts | 329° |
| 2026-04-25 12:17 | 68.72542 | 51.49442 | 34527 ft | 508 kts | 329° |
| 2026-04-25 12:17 | 68.78724 | 51.39843 | 34534 ft | 509 kts | 329° |
| 2026-04-25 12:18 | 68.84858 | 51.30257 | 34532 ft | 510 kts | 328° |
| 2026-04-25 12:18 | 68.91037 | 51.20541 | 34533 ft | 510 kts | 328° |
| 2026-04-25 12:19 | 69.00308 | 51.05844 | 34551 ft | 511 kts | 328° |
| 2026-04-25 12:20 | 69.06476 | 50.95900 | 34540 ft | 512 kts | 328° |
| 2026-04-25 12:20 | 69.12604 | 50.85926 | 34540 ft | 512 kts | 328° |
| 2026-04-25 12:21 | 69.18770 | 50.75833 | 34538 ft | 512 kts | 328° |
| 2026-04-25 12:21 | 69.24888 | 50.65761 | 34562 ft | 512 kts | 328° |
| 2026-04-25 12:22 | 69.31035 | 50.55577 | 34537 ft | 512 kts | 328° |
| 2026-04-25 12:22 | 69.37174 | 50.45339 | 34548 ft | 512 kts | 327° |
| 2026-04-25 12:23 | 69.43307 | 50.35040 | 34552 ft | 511 kts | 327° |
| 2026-04-25 12:23 | 69.49424 | 50.24698 | 34546 ft | 511 kts | 327° |
| 2026-04-25 12:24 | 69.55500 | 50.14359 | 34560 ft | 511 kts | 327° |
| 2026-04-25 12:24 | 69.61611 | 50.03887 | 34558 ft | 511 kts | 327° |
| 2026-04-25 12:25 | 69.67710 | 49.93368 | 34554 ft | 511 kts | 327° |
| 2026-04-25 12:25 | 69.73803 | 49.82786 | 34555 ft | 511 kts | 327° |
| 2026-04-25 12:26 | 69.79888 | 49.72146 | 34555 ft | 511 kts | 327° |
| 2026-04-25 12:26 | 69.85963 | 49.61450 | 34564 ft | 511 kts | 327° |
| 2026-04-25 12:27 | 69.92035 | 49.50686 | 34556 ft | 511 kts | 327° |
| 2026-04-25 12:27 | 69.98106 | 49.39851 | 34556 ft | 511 kts | 327° |
| 2026-04-25 12:28 | 70.04133 | 49.29020 | 34555 ft | 511 kts | 326° |
| 2026-04-25 12:28 | 70.10191 | 49.18055 | 34552 ft | 511 kts | 326° |
| 2026-04-25 12:29 | 70.16242 | 49.07028 | 34567 ft | 511 kts | 326° |
| 2026-04-25 12:29 | 70.22297 | 48.95915 | 34557 ft | 512 kts | 326° |
| 2026-04-25 12:30 | 70.28333 | 48.84765 | 34560 ft | 511 kts | 326° |
| 2026-04-25 12:30 | 70.34334 | 48.73599 | 34554 ft | 511 kts | 326° |
| 2026-04-25 12:31 | 70.40363 | 48.62295 | 34554 ft | 511 kts | 326° |
| 2026-04-25 12:31 | 70.46378 | 48.50935 | 34552 ft | 511 kts | 326° |
| 2026-04-25 12:32 | 70.52344 | 48.39588 | 34552 ft | 511 kts | 326° |
| 2026-04-25 12:32 | 70.58340 | 48.28104 | 34554 ft | 511 kts | 326° |
| 2026-04-25 12:33 | 70.64337 | 48.16538 | 34554 ft | 511 kts | 326° |
| 2026-04-25 12:33 | 70.70319 | 48.04914 | 34552 ft | 511 kts | 326° |
| 2026-04-25 12:34 | 70.76305 | 47.93200 | 34548 ft | 511 kts | 326° |
| 2026-04-25 12:34 | 70.82232 | 47.81518 | 34551 ft | 511 kts | 325° |
| 2026-04-25 12:35 | 70.88199 | 47.69671 | 34534 ft | 511 kts | 325° |
| 2026-04-25 12:35 | 70.94161 | 47.57748 | 34550 ft | 511 kts | 325° |
| 2026-04-25 12:36 | 71.00074 | 47.45835 | 34547 ft | 511 kts | 325° |
| 2026-04-25 12:36 | 71.06011 | 47.33787 | 34544 ft | 511 kts | 325° |
| 2026-04-25 12:37 | 71.11953 | 47.21640 | 34541 ft | 511 kts | 325° |
| 2026-04-25 12:37 | 71.17880 | 47.09434 | 34534 ft | 511 kts | 324° |
| 2026-04-25 12:38 | 71.23762 | 46.97230 | 34543 ft | 511 kts | 324° |
| 2026-04-25 12:38 | 71.29675 | 46.84870 | 34537 ft | 511 kts | 324° |
| 2026-04-25 12:39 | 71.34590 | 46.74524 | 34542 ft | 511 kts | 324° |
| 2026-04-25 12:39 | 71.41444 | 46.59991 | 34537 ft | 511 kts | 324° |
| 2026-04-25 12:40 | 71.46365 | 46.49480 | 34537 ft | 510 kts | 324° |
| 2026-04-25 12:40 | 71.52210 | 46.36994 | 34539 ft | 510 kts | 326° |
| 2026-04-25 12:41 | 71.58269 | 46.25308 | 34535 ft | 510 kts | 328° |
| 2026-04-25 12:41 | 71.64412 | 46.14009 | 34548 ft | 510 kts | 329° |
| 2026-04-25 12:42 | 71.70502 | 46.02662 | 34541 ft | 510 kts | 328° |
| 2026-04-25 12:42 | 71.76596 | 45.91077 | 34537 ft | 509 kts | 328° |
| 2026-04-25 12:43 | 71.82663 | 45.79395 | 34536 ft | 509 kts | 328° |
| 2026-04-25 12:43 | 71.91753 | 45.61726 | 34534 ft | 508 kts | 328° |
| 2026-04-25 12:44 | 71.97770 | 45.49928 | 34541 ft | 508 kts | 328° |
| 2026-04-25 12:45 | 72.06846 | 45.31963 | 34534 ft | 508 kts | 327° |
| 2026-04-25 12:45 | 72.15854 | 45.13924 | 34536 ft | 508 kts | 327° |
| 2026-04-25 12:46 | 72.21868 | 45.01765 | 34535 ft | 508 kts | 327° |
| 2026-04-25 12:46 | 72.27889 | 44.89496 | 34536 ft | 508 kts | 327° |
| 2026-04-25 12:47 | 72.33854 | 44.77243 | 34536 ft | 508 kts | 327° |
| 2026-04-25 12:47 | 72.39853 | 44.64825 | 34532 ft | 508 kts | 327° |
| 2026-04-25 12:48 | 72.45834 | 44.52345 | 34533 ft | 508 kts | 327° |
| 2026-04-25 12:48 | 72.51817 | 44.39762 | 34532 ft | 508 kts | 327° |
| 2026-04-25 12:49 | 72.57751 | 44.27185 | 34537 ft | 508 kts | 327° |
| 2026-04-25 12:49 | 72.63707 | 44.14458 | 34535 ft | 508 kts | 327° |
| 2026-04-25 12:50 | 72.69652 | 44.01653 | 34535 ft | 507 kts | 327° |
| 2026-04-25 12:50 | 72.75591 | 43.88758 | 34535 ft | 507 kts | 326° |
| 2026-04-25 12:51 | 72.81482 | 43.75863 | 34533 ft | 506 kts | 326° |
| 2026-04-25 12:51 | 72.87388 | 43.62832 | 34544 ft | 506 kts | 326° |
| 2026-04-25 12:52 | 72.93288 | 43.49707 | 34541 ft | 506 kts | 326° |
| 2026-04-25 12:52 | 72.99147 | 43.36564 | 34528 ft | 507 kts | 326° |
| 2026-04-25 12:53 | 73.05048 | 43.23222 | 34534 ft | 509 kts | 326° |
| 2026-04-25 12:53 | 73.10966 | 43.09734 | 34553 ft | 511 kts | 326° |
| 2026-04-25 12:54 | 73.16856 | 42.96194 | 34555 ft | 512 kts | 326° |
| 2026-04-25 12:54 | 73.22764 | 42.82498 | 34555 ft | 512 kts | 326° |
| 2026-04-25 12:55 | 73.27687 | 42.70998 | 34554 ft | 512 kts | 326° |
| 2026-04-25 12:55 | 73.34603 | 42.54705 | 34570 ft | 513 kts | 326° |
| 2026-04-25 12:56 | 73.40510 | 42.40664 | 34572 ft | 513 kts | 326° |
| 2026-04-25 12:56 | 73.46359 | 42.26653 | 34563 ft | 512 kts | 326° |
| 2026-04-25 12:57 | 73.52242 | 42.12636 | 34565 ft | 509 kts | 326° |
| 2026-04-25 12:57 | 73.58104 | 41.98657 | 34562 ft | 507 kts | 326° |
| 2026-04-25 12:58 | 73.63928 | 41.84632 | 34565 ft | 505 kts | 326° |
| 2026-04-25 12:58 | 73.69720 | 41.70535 | 34580 ft | 504 kts | 326° |
| 2026-04-25 12:59 | 73.75456 | 41.56450 | 34578 ft | 503 kts | 326° |
| 2026-04-25 12:59 | 73.81217 | 41.42183 | 34580 ft | 503 kts | 325° |
| 2026-04-25 13:00 | 73.86004 | 41.30235 | 34584 ft | 504 kts | 325° |
| 2026-04-25 13:00 | 73.92734 | 41.13293 | 34583 ft | 505 kts | 325° |
| 2026-04-25 13:01 | 73.98458 | 40.98746 | 34587 ft | 506 kts | 325° |
| 2026-04-25 13:01 | 74.04225 | 40.83964 | 34588 ft | 507 kts | 325° |
| 2026-04-25 13:02 | 74.09979 | 40.69080 | 34591 ft | 507 kts | 325° |
| 2026-04-25 13:02 | 74.15721 | 40.54067 | 34595 ft | 507 kts | 324° |
| 2026-04-25 13:03 | 74.21464 | 40.38971 | 34595 ft | 507 kts | 324° |
| 2026-04-25 13:03 | 74.27160 | 40.23857 | 34597 ft | 507 kts | 324° |
| 2026-04-25 13:04 | 74.32888 | 40.08508 | 34600 ft | 507 kts | 324° |
| 2026-04-25 13:04 | 74.38594 | 39.93078 | 34598 ft | 506 kts | 324° |
| 2026-04-25 13:05 | 74.44248 | 39.77664 | 34608 ft | 506 kts | 324° |
| 2026-04-25 13:05 | 74.49945 | 39.62213 | 34605 ft | 506 kts | 325° |
| 2026-04-25 13:06 | 74.55656 | 39.46735 | 34609 ft | 506 kts | 325° |
| 2026-04-25 13:06 | 74.61319 | 39.31233 | 34617 ft | 507 kts | 324° |
| 2026-04-25 13:07 | 74.66999 | 39.15510 | 34618 ft | 507 kts | 324° |
| 2026-04-25 13:07 | 74.72678 | 38.99630 | 34623 ft | 506 kts | 324° |
| 2026-04-25 13:08 | 74.78339 | 38.83653 | 34629 ft | 506 kts | 324° |
| 2026-04-25 13:08 | 74.83995 | 38.67545 | 34634 ft | 506 kts | 324° |
| 2026-04-25 13:09 | 74.89638 | 38.51325 | 34625 ft | 507 kts | 324° |
| 2026-04-25 13:09 | 74.95236 | 38.35082 | 34641 ft | 507 kts | 323° |
| 2026-04-25 13:10 | 75.00853 | 38.18627 | 34651 ft | 507 kts | 323° |
| 2026-04-25 13:10 | 75.06464 | 38.02040 | 34635 ft | 507 kts | 324° |
| 2026-04-25 13:11 | 75.12066 | 37.85319 | 34654 ft | 507 kts | 323° |
| 2026-04-25 13:11 | 75.17617 | 37.68593 | 34640 ft | 506 kts | 323° |
| 2026-04-25 13:12 | 75.23187 | 37.51648 | 34652 ft | 507 kts | 323° |
| 2026-04-25 13:12 | 75.27808 | 37.37467 | 34657 ft | 506 kts | 323° |
| 2026-04-25 13:13 | 75.34265 | 37.17457 | 34658 ft | 506 kts | 323° |
| 2026-04-25 13:13 | 75.39800 | 37.00126 | 34873 ft | 508 kts | 323° |
| 2026-04-25 13:14 | 75.42543 | 36.91474 | 35079 ft | 507 kts | 322° |
| 2026-04-25 13:14 | 75.45279 | 36.82799 | 35542 ft | 501 kts | 323° |
| 2026-04-25 13:14 | 75.48013 | 36.74089 | 35740 ft | 501 kts | 322° |
| 2026-04-25 13:14 | 75.50738 | 36.65370 | 35917 ft | 502 kts | 322° |
| 2026-04-25 13:15 | 75.52538 | 36.59585 | 36050 ft | 502 kts | 322° |
| 2026-04-25 13:15 | 75.56174 | 36.47844 | 36329 ft | 501 kts | 322° |
| 2026-04-25 13:15 | 75.58883 | 36.39047 | 36530 ft | 500 kts | 322° |
| 2026-04-25 13:15 | 75.61551 | 36.30342 | 36599 ft | 502 kts | 321° |
| 2026-04-25 13:16 | 75.66976 | 36.12508 | 36685 ft | 505 kts | 322° |
| 2026-04-25 13:16 | 75.72421 | 35.94430 | 36678 ft | 506 kts | 322° |
| 2026-04-25 13:17 | 75.77857 | 35.76199 | 36687 ft | 506 kts | 321° |
| 2026-04-25 13:17 | 75.83271 | 35.57858 | 36689 ft | 506 kts | 321° |
| 2026-04-25 13:18 | 75.88637 | 35.39498 | 36686 ft | 505 kts | 321° |
| 2026-04-25 13:18 | 75.94014 | 35.20929 | 36695 ft | 504 kts | 321° |
| 2026-04-25 13:19 | 75.99162 | 35.01573 | 36701 ft | 504 kts | 313° |
| 2026-04-25 13:19 | 76.02142 | 34.86531 | 36707 ft | 504 kts | 305° |
| 2026-04-25 13:20 | 76.07129 | 34.53730 | 36711 ft | 504 kts | 302° |
| 2026-04-25 13:20 | 76.10746 | 34.29009 | 36704 ft | 504 kts | 302° |
| 2026-04-25 13:21 | 76.14400 | 34.04075 | 36715 ft | 504 kts | 302° |
| 2026-04-25 13:21 | 76.18057 | 33.79038 | 36719 ft | 504 kts | 302° |
| 2026-04-25 13:22 | 76.21696 | 33.53875 | 36723 ft | 504 kts | 302° |
| 2026-04-25 13:23 | 76.27079 | 33.16053 | 36732 ft | 505 kts | 301° |
| 2026-04-25 13:23 | 76.30649 | 32.90568 | 36733 ft | 505 kts | 301° |
| 2026-04-25 13:24 | 76.34195 | 32.64928 | 36725 ft | 504 kts | 301° |
| 2026-04-25 13:24 | 76.37706 | 32.39220 | 36728 ft | 504 kts | 301° |
| 2026-04-25 13:25 | 76.41175 | 32.13501 | 36734 ft | 504 kts | 300° |
| 2026-04-25 13:25 | 76.44636 | 31.87523 | 36746 ft | 503 kts | 300° |
| 2026-04-25 13:26 | 76.48068 | 31.61417 | 36747 ft | 504 kts | 300° |
| 2026-04-25 13:26 | 76.51479 | 31.35136 | 36759 ft | 504 kts | 299° |
| 2026-04-25 13:27 | 76.54837 | 31.08929 | 36758 ft | 504 kts | 299° |
| 2026-04-25 13:27 | 76.58195 | 30.82372 | 36759 ft | 504 kts | 299° |
| 2026-04-25 13:28 | 76.61518 | 30.55750 | 36757 ft | 504 kts | 299° |
| 2026-04-25 13:28 | 76.64801 | 30.29089 | 36765 ft | 504 kts | 298° |
| 2026-04-25 13:29 | 76.68065 | 30.02232 | 36763 ft | 504 kts | 298° |
| 2026-04-25 13:29 | 76.71299 | 29.75253 | 36769 ft | 504 kts | 298° |
| 2026-04-25 13:30 | 76.75569 | 29.39059 | 36777 ft | 504 kts | 297° |
| 2026-04-25 13:31 | 76.80309 | 28.98093 | 36787 ft | 504 kts | 297° |
| 2026-04-25 13:31 | 76.83944 | 28.66089 | 36786 ft | 504 kts | 296° |
| 2026-04-25 13:32 | 76.86526 | 28.43031 | 36793 ft | 504 kts | 296° |
| 2026-04-25 13:32 | 76.89593 | 28.15292 | 36785 ft | 504 kts | 296° |
| 2026-04-25 13:33 | 76.92634 | 27.87381 | 36800 ft | 503 kts | 296° |
| 2026-04-25 13:33 | 76.95619 | 27.59592 | 36801 ft | 503 kts | 296° |
| 2026-04-25 13:34 | 76.98591 | 27.31507 | 36805 ft | 503 kts | 295° |
| 2026-04-25 13:34 | 77.01528 | 27.03346 | 36814 ft | 503 kts | 295° |
| 2026-04-25 13:35 | 77.03950 | 26.79807 | 36820 ft | 503 kts | 295° |
| 2026-04-25 13:35 | 77.07299 | 26.46779 | 36826 ft | 501 kts | 294° |
| 2026-04-25 13:36 | 77.10136 | 26.18326 | 36840 ft | 501 kts | 294° |
| 2026-04-25 13:36 | 77.12944 | 25.89738 | 36841 ft | 501 kts | 294° |
| 2026-04-25 13:37 | 77.15718 | 25.61059 | 36860 ft | 501 kts | 293° |
| 2026-04-25 13:37 | 77.18468 | 25.32175 | 36857 ft | 502 kts | 293° |
| 2026-04-25 13:38 | 77.21174 | 25.03309 | 36863 ft | 502 kts | 293° |
| 2026-04-25 13:38 | 77.23860 | 24.74190 | 36885 ft | 502 kts | 292° |
| 2026-04-25 13:39 | 77.26508 | 24.45020 | 36878 ft | 502 kts | 292° |
| 2026-04-25 13:39 | 77.29130 | 24.15672 | 36897 ft | 502 kts | 292° |
| 2026-04-25 13:40 | 77.31720 | 23.86191 | 36898 ft | 501 kts | 291° |
| 2026-04-25 13:40 | 77.34276 | 23.56623 | 36903 ft | 501 kts | 291° |
| 2026-04-25 13:41 | 77.36782 | 23.27132 | 36910 ft | 501 kts | 291° |
| 2026-04-25 13:41 | 77.39268 | 22.97369 | 36928 ft | 500 kts | 291° |
| 2026-04-25 13:42 | 77.41723 | 22.67472 | 36923 ft | 500 kts | 290° |
| 2026-04-25 13:42 | 77.44129 | 22.37663 | 36937 ft | 501 kts | 290° |
| 2026-04-25 13:43 | 77.46513 | 22.07592 | 36943 ft | 500 kts | 290° |
| 2026-04-25 13:43 | 77.48864 | 21.77405 | 36946 ft | 500 kts | 289° |
| 2026-04-25 13:44 | 77.51177 | 21.47154 | 36959 ft | 499 kts | 289° |
| 2026-04-25 13:44 | 77.53445 | 21.16957 | 36963 ft | 499 kts | 289° |
| 2026-04-25 13:45 | 77.55697 | 20.86408 | 36961 ft | 499 kts | 288° |
| 2026-04-25 13:45 | 77.57904 | 20.55893 | 36966 ft | 498 kts | 288° |
| 2026-04-25 13:46 | 77.60062 | 20.25494 | 36981 ft | 498 kts | 288° |
| 2026-04-25 13:46 | 77.62197 | 19.94824 | 36984 ft | 498 kts | 288° |
| 2026-04-25 13:47 | 77.64298 | 19.64033 | 37004 ft | 497 kts | 287° |
| 2026-04-25 13:47 | 77.66362 | 19.33191 | 37003 ft | 497 kts | 287° |
| 2026-04-25 13:48 | 77.68387 | 19.02300 | 37013 ft | 496 kts | 287° |
| 2026-04-25 13:48 | 77.70368 | 18.71466 | 37016 ft | 496 kts | 287° |
| 2026-04-25 13:49 | 77.72322 | 18.40404 | 37028 ft | 496 kts | 286° |
| 2026-04-25 13:49 | 77.74241 | 18.09249 | 37030 ft | 496 kts | 286° |
| 2026-04-25 13:50 | 77.76129 | 17.77920 | 37026 ft | 496 kts | 285° |
| 2026-04-25 13:50 | 77.77967 | 17.46753 | 37033 ft | 495 kts | 285° |
| 2026-04-25 13:51 | 77.79781 | 17.15309 | 37029 ft | 495 kts | 285° |
| 2026-04-25 13:51 | 77.81554 | 16.83840 | 37030 ft | 494 kts | 284° |
| 2026-04-25 13:52 | 77.83281 | 16.52495 | 37024 ft | 494 kts | 284° |
| 2026-04-25 13:52 | 77.84982 | 16.20881 | 37017 ft | 494 kts | 284° |
| 2026-04-25 13:53 | 77.86644 | 15.89217 | 37018 ft | 494 kts | 284° |
| 2026-04-25 13:53 | 77.88274 | 15.57412 | 37012 ft | 494 kts | 283° |
| 2026-04-25 13:54 | 77.89856 | 15.25754 | 37013 ft | 494 kts | 283° |
| 2026-04-25 13:54 | 77.91411 | 14.93818 | 37019 ft | 494 kts | 283° |
| 2026-04-25 13:55 | 77.92932 | 14.61775 | 37019 ft | 494 kts | 282° |
| 2026-04-25 13:55 | 77.94414 | 14.29688 | 37013 ft | 494 kts | 282° |
| 2026-04-25 13:56 | 77.95849 | 13.97745 | 37022 ft | 494 kts | 282° |
| 2026-04-25 13:56 | 77.96415 | 13.84910 | 37017 ft | 0 kts | 282° |
| 2026-04-25 13:56 | 77.97083 | 13.69568 | 37040 ft | 494 kts | 282° |
| 2026-04-25 13:57 | 77.98460 | 13.37269 | 37035 ft | 494 kts | 281° |
| 2026-04-25 13:57 | 77.99804 | 13.04935 | 37032 ft | 494 kts | 281° |
| 2026-04-25 13:58 | 78.01173 | 12.72552 | 37037 ft | 494 kts | 282° |
| 2026-04-25 13:58 | 78.02584 | 12.40392 | 37039 ft | 493 kts | 282° |
| 2026-04-25 13:59 | 78.03974 | 12.07937 | 37037 ft | 493 kts | 281° |
| 2026-04-25 13:59 | 78.05311 | 11.75459 | 37043 ft | 493 kts | 281° |
| 2026-04-25 14:00 | 78.06594 | 11.43142 | 37042 ft | 493 kts | 281° |
| 2026-04-25 14:00 | 78.07845 | 11.10568 | 37047 ft | 492 kts | 280° |
| 2026-04-25 14:01 | 78.09059 | 10.77951 | 37047 ft | 492 kts | 280° |
| 2026-04-25 14:01 | 78.10234 | 10.45311 | 37049 ft | 492 kts | 280° |
| 2026-04-25 14:02 | 78.11372 | 10.12609 | 37052 ft | 491 kts | 279° |
| 2026-04-25 14:02 | 78.12465 | 9.80064 | 37054 ft | 491 kts | 279° |
| 2026-04-25 14:03 | 78.13526 | 9.47276 | 37069 ft | 491 kts | 279° |
| 2026-04-25 14:03 | 78.14550 | 9.14444 | 37065 ft | 491 kts | 278° |
| 2026-04-25 14:04 | 78.15529 | 8.81753 | 37070 ft | 490 kts | 278° |
| 2026-04-25 14:04 | 78.16475 | 8.48878 | 37076 ft | 490 kts | 278° |
| 2026-04-25 14:05 | 78.17382 | 8.15960 | 37073 ft | 490 kts | 277° |
| 2026-04-25 14:05 | 78.18252 | 7.82979 | 37098 ft | 490 kts | 277° |
| 2026-04-25 14:06 | 78.19080 | 7.50128 | 37087 ft | 490 kts | 277° |
| 2026-04-25 14:06 | 78.19873 | 7.17074 | 37111 ft | 489 kts | 277° |
| 2026-04-25 14:07 | 78.20630 | 6.83947 | 37108 ft | 489 kts | 276° |
| 2026-04-25 14:07 | 78.21342 | 6.51030 | 37127 ft | 489 kts | 276° |
| 2026-04-25 14:08 | 78.22018 | 6.17975 | 37122 ft | 488 kts | 276° |
| 2026-04-25 14:08 | 78.22657 | 5.84850 | 37157 ft | 488 kts | 276° |
| 2026-04-25 14:09 | 78.23257 | 5.51708 | 37147 ft | 488 kts | 275° |
| 2026-04-25 14:09 | 78.23818 | 5.18547 | 37157 ft | 487 kts | 275° |
| 2026-04-25 14:10 | 78.24340 | 4.85537 | 37169 ft | 487 kts | 275° |
| 2026-04-25 14:10 | 78.24824 | 4.52326 | 37163 ft | 486 kts | 275° |
| 2026-04-25 14:11 | 78.25266 | 4.19405 | 37189 ft | 486 kts | 274° |
| 2026-04-25 14:11 | 78.25674 | 3.86232 | 37186 ft | 486 kts | 274° |
| 2026-04-25 14:12 | 78.26042 | 3.53245 | 37216 ft | 485 kts | 274° |
| 2026-04-25 14:12 | 78.26374 | 3.19939 | 37207 ft | 485 kts | 274° |
| 2026-04-25 14:13 | 78.26664 | 2.87076 | 37231 ft | 484 kts | 273° |
| 2026-04-25 14:13 | 78.26916 | 2.53999 | 37245 ft | 484 kts | 273° |
| 2026-04-25 14:14 | 78.27132 | 2.20883 | 37237 ft | 484 kts | 272° |
| 2026-04-25 14:14 | 78.27310 | 1.87802 | 37256 ft | 484 kts | 272° |
| 2026-04-25 14:15 | 78.27448 | 1.54990 | 37254 ft | 483 kts | 272° |
| 2026-04-25 14:15 | 78.27550 | 1.21893 | 37286 ft | 483 kts | 271° |
| 2026-04-25 14:16 | 78.27613 | 0.89057 | 37272 ft | 482 kts | 271° |
| 2026-04-25 14:16 | 78.27639 | 0.56086 | 37303 ft | 482 kts | 271° |
| 2026-04-25 14:17 | 78.27627 | 0.23095 | 37300 ft | 482 kts | 270° |
| 2026-04-25 14:17 | 78.27577 | -0.09904 | 37319 ft | 482 kts | 270° |
| 2026-04-25 14:18 | 78.27490 | -0.42635 | 37301 ft | 481 kts | 270° |
| 2026-04-25 14:18 | 78.27365 | -0.75594 | 37320 ft | 481 kts | 269° |
| 2026-04-25 14:19 | 78.27202 | -1.08459 | 37304 ft | 481 kts | 269° |
| 2026-04-25 14:19 | 78.27003 | -1.41335 | 37317 ft | 481 kts | 269° |
| 2026-04-25 14:20 | 78.26768 | -1.73989 | 37320 ft | 481 kts | 269° |
| 2026-04-25 14:20 | 78.26492 | -2.06867 | 37330 ft | 481 kts | 269° |
| 2026-04-25 14:21 | 78.26236 | -2.34118 | 37344 ft | 481 kts | 268° |
| 2026-04-25 14:21 | 78.25892 | -2.66938 | 37352 ft | 481 kts | 268° |
| 2026-04-25 14:22 | 78.25512 | -2.99726 | 37341 ft | 481 kts | 267° |
| 2026-04-25 14:22 | 78.25093 | -3.32566 | 37359 ft | 481 kts | 267° |
| 2026-04-25 14:23 | 78.24641 | -3.65129 | 37353 ft | 482 kts | 266° |
| 2026-04-25 14:23 | 78.24147 | -3.97871 | 37374 ft | 480 kts | 266° |
| 2026-04-25 14:24 | 78.23618 | -4.30528 | 37376 ft | 480 kts | 266° |
| 2026-04-25 14:24 | 78.23053 | -4.63088 | 37384 ft | 479 kts | 266° |
| 2026-04-25 14:25 | 78.22451 | -4.95650 | 37389 ft | 479 kts | 265° |
| 2026-04-25 14:25 | 78.21817 | -5.27922 | 37395 ft | 479 kts | 265° |
| 2026-04-25 14:26 | 78.21139 | -5.60462 | 37400 ft | 479 kts | 265° |
| 2026-04-25 14:26 | 78.20427 | -5.92868 | 37408 ft | 479 kts | 264° |
| 2026-04-25 14:27 | 78.19685 | -6.24980 | 37412 ft | 478 kts | 264° |
| 2026-04-25 14:27 | 78.18902 | -6.57234 | 37413 ft | 477 kts | 263° |
| 2026-04-25 14:28 | 78.18083 | -6.89407 | 37413 ft | 477 kts | 263° |
| 2026-04-25 14:28 | 78.17235 | -7.21308 | 37417 ft | 477 kts | 263° |
| 2026-04-25 14:29 | 78.16345 | -7.53369 | 37421 ft | 477 kts | 263° |
| 2026-04-25 14:29 | 78.15422 | -7.85315 | 37431 ft | 476 kts | 263° |
| 2026-04-25 14:30 | 78.14461 | -8.17221 | 37439 ft | 475 kts | 262° |
| 2026-04-25 14:30 | 78.12964 | -8.64744 | 37431 ft | 476 kts | 262° |
| 2026-04-25 14:31 | 78.11915 | -8.96485 | 37446 ft | 476 kts | 261° |
| 2026-04-25 14:31 | 78.10831 | -9.28229 | 37448 ft | 476 kts | 261° |
| 2026-04-25 14:32 | 78.09712 | -9.59894 | 37453 ft | 477 kts | 261° |
| 2026-04-25 14:32 | 78.08563 | -9.91340 | 37458 ft | 477 kts | 260° |
| 2026-04-25 14:33 | 78.07370 | -10.22971 | 37467 ft | 478 kts | 260° |
| 2026-04-25 14:33 | 78.06144 | -10.54497 | 37463 ft | 477 kts | 260° |
| 2026-04-25 14:34 | 78.04882 | -10.86004 | 37475 ft | 476 kts | 259° |
| 2026-04-25 14:34 | 78.03594 | -11.17203 | 37474 ft | 477 kts | 259° |
| 2026-04-25 14:35 | 78.02264 | -11.48565 | 37478 ft | 478 kts | 259° |
| 2026-04-25 14:35 | 78.00899 | -11.79966 | 37485 ft | 479 kts | 258° |
| 2026-04-25 14:36 | 77.99992 | -12.11688 | 37483 ft | 480 kts | 268° |
| 2026-04-25 14:36 | 78.00036 | -12.43766 | 37489 ft | 480 kts | 271° |
| 2026-04-25 14:37 | 78.00119 | -12.75885 | 37487 ft | 481 kts | 270° |
| 2026-04-25 14:37 | 78.00146 | -13.07852 | 37495 ft | 481 kts | 270° |
| 2026-04-25 14:38 | 78.00122 | -13.40046 | 37494 ft | 481 kts | 270° |
| 2026-04-25 14:38 | 78.00057 | -13.72337 | 37493 ft | 482 kts | 269° |
| 2026-04-25 14:39 | 77.99956 | -14.04563 | 37493 ft | 481 kts | 269° |
| 2026-04-25 14:39 | 77.99819 | -14.36514 | 37493 ft | 481 kts | 269° |
| 2026-04-25 14:40 | 77.99646 | -14.68699 | 37495 ft | 481 kts | 268° |
| 2026-04-25 14:40 | 77.99436 | -15.00840 | 37492 ft | 480 kts | 268° |
| 2026-04-25 14:41 | 77.99191 | -15.32728 | 37491 ft | 480 kts | 268° |
| 2026-04-25 14:41 | 77.98909 | -15.64762 | 37490 ft | 479 kts | 267° |
| 2026-04-25 14:42 | 77.98647 | -15.91358 | 37491 ft | 479 kts | 267° |
| 2026-04-25 14:42 | 77.98236 | -16.28708 | 37490 ft | 479 kts | 266° |
| 2026-04-25 14:43 | 77.97848 | -16.60417 | 37492 ft | 478 kts | 266° |
| 2026-04-25 14:43 | 77.97421 | -16.92297 | 37493 ft | 478 kts | 266° |
| 2026-04-25 14:44 | 77.96960 | -17.24079 | 37494 ft | 478 kts | 266° |
| 2026-04-25 14:44 | 77.96462 | -17.55899 | 37493 ft | 478 kts | 265° |
| 2026-04-25 14:45 | 77.95928 | -17.87636 | 37493 ft | 478 kts | 265° |
| 2026-04-25 14:45 | 77.95362 | -18.19196 | 37494 ft | 478 kts | 265° |
| 2026-04-25 14:46 | 77.94756 | -18.50909 | 37496 ft | 478 kts | 264° |
| 2026-04-25 14:46 | 77.94114 | -18.82630 | 37496 ft | 478 kts | 264° |
| 2026-04-25 14:47 | 77.93554 | -19.08920 | 37497 ft | 478 kts | 264° |
| 2026-04-25 14:47 | 77.92725 | -19.45863 | 37496 ft | 478 kts | 263° |
| 2026-04-25 14:48 | 77.91981 | -19.77232 | 37499 ft | 478 kts | 263° |
| 2026-04-25 14:48 | 77.91198 | -20.08741 | 37501 ft | 478 kts | 263° |
| 2026-04-25 14:49 | 77.90378 | -20.40262 | 37510 ft | 478 kts | 263° |
| 2026-04-25 14:49 | 77.89523 | -20.71724 | 37510 ft | 478 kts | 262° |
| 2026-04-25 14:50 | 77.88637 | -21.02961 | 37511 ft | 478 kts | 262° |
| 2026-04-25 14:50 | 77.87722 | -21.34030 | 37520 ft | 478 kts | 262° |
| 2026-04-25 14:51 | 77.86760 | -21.65397 | 37515 ft | 479 kts | 261° |
| 2026-04-25 14:51 | 77.85763 | -21.96714 | 37512 ft | 479 kts | 261° |
| 2026-04-25 14:52 | 77.84739 | -22.27745 | 37506 ft | 479 kts | 261° |
| 2026-04-25 14:52 | 77.83848 | -22.53895 | 37510 ft | 479 kts | 260° |
| 2026-04-25 14:53 | 77.82570 | -22.90135 | 37515 ft | 479 kts | 260° |
| 2026-04-25 14:53 | 77.81434 | -23.21219 | 37514 ft | 479 kts | 259° |
| 2026-04-25 14:54 | 77.80264 | -23.52236 | 37518 ft | 479 kts | 259° |
| 2026-04-25 14:54 | 77.79064 | -23.83060 | 37522 ft | 478 kts | 259° |
| 2026-04-25 14:55 | 77.77826 | -24.13913 | 37501 ft | 478 kts | 258° |
| 2026-04-25 14:55 | 77.76555 | -24.44688 | 37511 ft | 477 kts | 258° |
| 2026-04-25 14:56 | 77.75252 | -24.75347 | 37520 ft | 477 kts | 258° |
| 2026-04-25 14:56 | 77.73916 | -25.05916 | 37522 ft | 476 kts | 258° |
| 2026-04-25 14:57 | 77.72556 | -25.36201 | 37516 ft | 476 kts | 257° |
| 2026-04-25 14:57 | 77.71151 | -25.66692 | 37520 ft | 477 kts | 257° |
| 2026-04-25 14:58 | 77.69713 | -25.97082 | 37521 ft | 477 kts | 257° |
| 2026-04-25 14:58 | 77.68240 | -26.27422 | 37504 ft | 477 kts | 256° |
| 2026-04-25 14:59 | 77.66735 | -26.57680 | 37514 ft | 477 kts | 256° |
| 2026-04-25 14:59 | 77.65203 | -26.87735 | 37514 ft | 478 kts | 256° |
| 2026-04-25 15:00 | 77.63629 | -27.17892 | 37514 ft | 478 kts | 256° |
| 2026-04-25 15:00 | 77.62022 | -27.47976 | 37501 ft | 478 kts | 255° |
| 2026-04-25 15:01 | 77.60382 | -27.77965 | 37513 ft | 477 kts | 255° |
| 2026-04-25 15:01 | 77.58714 | -28.07806 | 37507 ft | 477 kts | 255° |
| 2026-04-25 15:02 | 77.57022 | -28.37420 | 37480 ft | 477 kts | 255° |
| 2026-04-25 15:02 | 77.55283 | -28.67198 | 37488 ft | 476 kts | 254° |
| 2026-04-25 15:03 | 77.53520 | -28.96766 | 37464 ft | 476 kts | 254° |
| 2026-04-25 15:03 | 77.51734 | -29.26089 | 37472 ft | 477 kts | 253° |
| 2026-04-25 15:04 | 77.49901 | -29.55579 | 37457 ft | 478 kts | 253° |
| 2026-04-25 15:04 | 77.48035 | -29.85004 | 37449 ft | 478 kts | 253° |
| 2026-04-25 15:05 | 77.46134 | -30.14391 | 37450 ft | 479 kts | 253° |
| 2026-04-25 15:06 | 77.43227 | -30.58235 | 37448 ft | 479 kts | 252° |
| 2026-04-25 15:06 | 77.41243 | -30.87449 | 37445 ft | 479 kts | 252° |
| 2026-04-25 15:07 | 77.39228 | -31.16568 | 37425 ft | 479 kts | 252° |
| 2026-04-25 15:07 | 77.37182 | -31.45577 | 37424 ft | 479 kts | 251° |
| 2026-04-25 15:08 | 77.35106 | -31.74495 | 37419 ft | 479 kts | 251° |
| 2026-04-25 15:08 | 77.32999 | -32.03307 | 37417 ft | 478 kts | 251° |
| 2026-04-25 15:09 | 77.30876 | -32.31828 | 37419 ft | 478 kts | 251° |
| 2026-04-25 15:09 | 77.27973 | -32.70028 | 37409 ft | 477 kts | 250° |
| 2026-04-25 15:10 | 77.25785 | -32.98249 | 37401 ft | 476 kts | 250° |
| 2026-04-25 15:11 | 77.22429 | -33.40631 | 37403 ft | 476 kts | 250° |
| 2026-04-25 15:11 | 77.20176 | -33.68503 | 37390 ft | 475 kts | 249° |
| 2026-04-25 15:12 | 77.16717 | -34.10412 | 37397 ft | 475 kts | 249° |
| 2026-04-25 15:12 | 77.14772 | -34.33541 | 37382 ft | 476 kts | 249° |
| 2026-04-25 15:13 | 77.10817 | -34.79647 | 37383 ft | 476 kts | 248° |
| 2026-04-25 15:14 | 77.08397 | -35.07282 | 37374 ft | 476 kts | 248° |
| 2026-04-25 15:14 | 77.05950 | -35.34790 | 37371 ft | 476 kts | 248° |
| 2026-04-25 15:15 | 77.03491 | -35.62056 | 37363 ft | 476 kts | 248° |
| 2026-04-25 15:15 | 77.00967 | -35.89311 | 37363 ft | 476 kts | 244° |
| 2026-04-25 15:16 | 76.97665 | -36.14713 | 37365 ft | 475 kts | 233° |
| 2026-04-25 15:16 | 76.91705 | -36.49824 | 37368 ft | 476 kts | 233° |
| 2026-04-25 15:17 | 76.85770 | -36.84748 | 37356 ft | 476 kts | 233° |
| 2026-04-25 15:18 | 76.81782 | -37.07990 | 37355 ft | 476 kts | 233° |
| 2026-04-25 15:18 | 76.75789 | -37.42436 | 37356 ft | 476 kts | 233° |
| 2026-04-25 15:19 | 76.72435 | -37.61455 | 37347 ft | 476 kts | 232° |
| 2026-04-25 15:19 | 76.67691 | -37.88064 | 37344 ft | 476 kts | 232° |
| 2026-04-25 15:20 | 76.63631 | -38.10563 | 37348 ft | 476 kts | 232° |
| 2026-04-25 15:20 | 76.59529 | -38.33058 | 37345 ft | 476 kts | 232° |
| 2026-04-25 15:21 | 76.55431 | -38.55283 | 37346 ft | 476 kts | 231° |
| 2026-04-25 15:21 | 76.51287 | -38.77516 | 37339 ft | 476 kts | 231° |
| 2026-04-25 15:22 | 76.47129 | -38.99590 | 37339 ft | 476 kts | 231° |
| 2026-04-25 15:22 | 76.42952 | -39.21529 | 37331 ft | 476 kts | 231° |
| 2026-04-25 15:23 | 76.38785 | -39.43189 | 37340 ft | 476 kts | 231° |
| 2026-04-25 15:23 | 76.34564 | -39.64895 | 37330 ft | 476 kts | 231° |
| 2026-04-25 15:24 | 76.30335 | -39.86418 | 37331 ft | 476 kts | 230° |
| 2026-04-25 15:24 | 76.26801 | -40.04228 | 37331 ft | 475 kts | 230° |
| 2026-04-25 15:25 | 76.21848 | -40.28939 | 37325 ft | 475 kts | 230° |
| 2026-04-25 15:25 | 76.17560 | -40.50091 | 37326 ft | 475 kts | 230° |
| 2026-04-25 15:26 | 76.13261 | -40.71085 | 37324 ft | 475 kts | 230° |
| 2026-04-25 15:26 | 76.08946 | -40.91939 | 37321 ft | 475 kts | 229° |
| 2026-04-25 15:27 | 76.04638 | -41.12549 | 37313 ft | 475 kts | 229° |
| 2026-04-25 15:28 | 75.98106 | -41.43412 | 37317 ft | 474 kts | 229° |
| 2026-04-25 15:28 | 75.93759 | -41.63691 | 37317 ft | 474 kts | 229° |
| 2026-04-25 15:29 | 75.89372 | -41.83959 | 37320 ft | 474 kts | 229° |
| 2026-04-25 15:29 | 75.84975 | -42.04067 | 37313 ft | 474 kts | 228° |
| 2026-04-25 15:30 | 75.80564 | -42.24046 | 37307 ft | 473 kts | 228° |
| 2026-04-25 15:30 | 75.76139 | -42.43888 | 37308 ft | 473 kts | 228° |
| 2026-04-25 15:31 | 75.71730 | -42.63471 | 37309 ft | 472 kts | 228° |
| 2026-04-25 15:31 | 75.67275 | -42.83065 | 37313 ft | 472 kts | 227° |
| 2026-04-25 15:32 | 75.62809 | -43.02518 | 37308 ft | 472 kts | 227° |
| 2026-04-25 15:32 | 75.58358 | -43.21723 | 37306 ft | 472 kts | 227° |
| 2026-04-25 15:33 | 75.51609 | -43.50495 | 37309 ft | 472 kts | 227° |
| 2026-04-25 15:33 | 75.47097 | -43.69505 | 37308 ft | 472 kts | 227° |
| 2026-04-25 15:34 | 75.42562 | -43.88429 | 37308 ft | 472 kts | 226° |
| 2026-04-25 15:34 | 75.38789 | -44.04039 | 37309 ft | 471 kts | 226° |
| 2026-04-25 15:35 | 75.31213 | -44.35020 | 37306 ft | 471 kts | 226° |
| 2026-04-25 15:36 | 75.24348 | -44.62682 | 37307 ft | 471 kts | 226° |
| 2026-04-25 15:36 | 75.19754 | -44.80984 | 37311 ft | 471 kts | 226° |
| 2026-04-25 15:37 | 75.15151 | -44.99152 | 37312 ft | 471 kts | 225° |
| 2026-04-25 15:37 | 75.10528 | -45.17231 | 37308 ft | 471 kts | 225° |
| 2026-04-25 15:38 | 75.05896 | -45.35182 | 37309 ft | 471 kts | 225° |
| 2026-04-25 15:38 | 75.01247 | -45.53035 | 37309 ft | 471 kts | 225° |
| 2026-04-25 15:39 | 74.96587 | -45.70769 | 37309 ft | 471 kts | 225° |
| 2026-04-25 15:39 | 74.91945 | -45.88280 | 37303 ft | 471 kts | 225° |
| 2026-04-25 15:40 | 74.88813 | -46.00006 | 37305 ft | 470 kts | 225° |
| 2026-04-25 15:40 | 74.82558 | -46.23218 | 37312 ft | 471 kts | 224° |
| 2026-04-25 15:41 | 74.77843 | -46.40533 | 37313 ft | 471 kts | 224° |
| 2026-04-25 15:41 | 74.73111 | -46.57755 | 37312 ft | 471 kts | 224° |
| 2026-04-25 15:42 | 74.68370 | -46.74862 | 37310 ft | 471 kts | 224° |
| 2026-04-25 15:42 | 74.63607 | -46.91899 | 37315 ft | 471 kts | 224° |
| 2026-04-25 15:43 | 74.58840 | -47.08798 | 37322 ft | 471 kts | 224° |
| 2026-04-25 15:43 | 74.54056 | -47.25614 | 37321 ft | 471 kts | 224° |
| 2026-04-25 15:44 | 74.49260 | -47.42325 | 37318 ft | 471 kts | 223° |
| 2026-04-25 15:44 | 74.44444 | -47.58961 | 37318 ft | 471 kts | 223° |
| 2026-04-25 15:45 | 74.39650 | -47.75380 | 37318 ft | 472 kts | 223° |
| 2026-04-25 15:45 | 74.36416 | -47.86375 | 37318 ft | 472 kts | 223° |
| 2026-04-25 15:46 | 74.29960 | -48.08143 | 37324 ft | 472 kts | 223° |
| 2026-04-25 15:46 | 74.25095 | -48.24381 | 37323 ft | 472 kts | 223° |
| 2026-04-25 15:47 | 74.20222 | -48.40512 | 37324 ft | 472 kts | 223° |
| 2026-04-25 15:47 | 74.15335 | -48.56551 | 37323 ft | 471 kts | 223° |
| 2026-04-25 15:48 | 74.10438 | -48.72488 | 37321 ft | 472 kts | 222° |
| 2026-04-25 15:48 | 74.05525 | -48.88345 | 37324 ft | 472 kts | 222° |
| 2026-04-25 15:49 | 74.00604 | -49.04096 | 37324 ft | 472 kts | 222° |
| 2026-04-25 15:49 | 73.95668 | -49.19765 | 37323 ft | 472 kts | 222° |
| 2026-04-25 15:50 | 73.90720 | -49.35341 | 37327 ft | 472 kts | 222° |
| 2026-04-25 15:50 | 73.85756 | -49.50838 | 37312 ft | 472 kts | 222° |
| 2026-04-25 15:51 | 73.82464 | -49.61047 | 37322 ft | 472 kts | 222° |
| 2026-04-25 15:51 | 73.75838 | -49.81426 | 37333 ft | 472 kts | 221° |
| 2026-04-25 15:52 | 73.70844 | -49.96641 | 37331 ft | 472 kts | 221° |
| 2026-04-25 15:52 | 73.65837 | -50.11770 | 37335 ft | 472 kts | 221° |
| 2026-04-25 15:53 | 73.60810 | -50.26838 | 37334 ft | 472 kts | 221° |
| 2026-04-25 15:53 | 73.55776 | -50.41803 | 37327 ft | 472 kts | 221° |
| 2026-04-25 15:54 | 73.50738 | -50.56664 | 37336 ft | 472 kts | 221° |
| 2026-04-25 15:54 | 73.45715 | -50.71362 | 37349 ft | 473 kts | 221° |
| 2026-04-25 15:55 | 73.40652 | -50.86058 | 37347 ft | 473 kts | 221° |
| 2026-04-25 15:55 | 73.35582 | -51.00658 | 37351 ft | 473 kts | 221° |
| 2026-04-25 15:56 | 73.30500 | -51.15178 | 37336 ft | 473 kts | 221° |
| 2026-04-25 15:56 | 73.25409 | -51.29611 | 37359 ft | 472 kts | 221° |
| 2026-04-25 15:57 | 73.20305 | -51.43964 | 37360 ft | 472 kts | 220° |
| 2026-04-25 15:57 | 73.15191 | -51.58237 | 37361 ft | 473 kts | 220° |
| 2026-04-25 15:58 | 73.10067 | -51.72427 | 37370 ft | 473 kts | 220° |
| 2026-04-25 15:58 | 73.04937 | -51.86537 | 37372 ft | 473 kts | 220° |
| 2026-04-25 15:59 | 72.99808 | -52.00642 | 37375 ft | 472 kts | 223° |
| 2026-04-25 15:59 | 72.95064 | -52.16080 | 37380 ft | 471 kts | 226° |
| 2026-04-25 16:00 | 72.91939 | -52.26350 | 37399 ft | 471 kts | 225° |
| 2026-04-25 16:00 | 72.85629 | -52.46801 | 37404 ft | 471 kts | 225° |
| 2026-04-25 16:01 | 72.80865 | -52.62070 | 37411 ft | 471 kts | 225° |
| 2026-04-25 16:01 | 72.76896 | -52.74705 | 37481 ft | 473 kts | 225° |
| 2026-04-25 16:02 | 72.74498 | -52.82301 | 37711 ft | 473 kts | 225° |
| 2026-04-25 16:02 | 72.72103 | -52.89857 | 38002 ft | 471 kts | 225° |
| 2026-04-25 16:02 | 72.69712 | -52.97373 | 38270 ft | 470 kts | 225° |
| 2026-04-25 16:02 | 72.67320 | -53.04864 | 38474 ft | 470 kts | 225° |
| 2026-04-25 16:03 | 72.64927 | -53.12329 | 38691 ft | 470 kts | 225° |
| 2026-04-25 16:03 | 72.62525 | -53.19796 | 38853 ft | 471 kts | 225° |
| 2026-04-25 16:03 | 72.60124 | -53.27228 | 39057 ft | 471 kts | 225° |
| 2026-04-25 16:03 | 72.57717 | -53.34653 | 39229 ft | 471 kts | 225° |
| 2026-04-25 16:04 | 72.55311 | -53.42043 | 39330 ft | 471 kts | 224° |
| 2026-04-25 16:04 | 72.52890 | -53.49455 | 39367 ft | 473 kts | 224° |
| 2026-04-25 16:04 | 72.48040 | -53.64211 | 39443 ft | 471 kts | 225° |
| 2026-04-25 16:05 | 72.43200 | -53.78829 | 39445 ft | 470 kts | 224° |
| 2026-04-25 16:06 | 72.35975 | -54.00444 | 39434 ft | 470 kts | 224° |
| 2026-04-25 16:06 | 72.31121 | -54.14833 | 39440 ft | 469 kts | 224° |
| 2026-04-25 16:07 | 72.26297 | -54.29027 | 39446 ft | 469 kts | 224° |
| 2026-04-25 16:07 | 72.21430 | -54.43238 | 39463 ft | 469 kts | 224° |
| 2026-04-25 16:08 | 72.16547 | -54.57397 | 39460 ft | 469 kts | 224° |
| 2026-04-25 16:08 | 72.11649 | -54.71490 | 39464 ft | 470 kts | 224° |
| 2026-04-25 16:09 | 72.06736 | -54.85526 | 39468 ft | 471 kts | 224° |
| 2026-04-25 16:09 | 72.01800 | -54.99528 | 39467 ft | 472 kts | 224° |
| 2026-04-25 16:10 | 71.97684 | -55.11118 | 39455 ft | 473 kts | 224° |
| 2026-04-25 16:10 | 71.91880 | -55.27344 | 39465 ft | 472 kts | 224° |
| 2026-04-25 16:11 | 71.86906 | -55.41142 | 39470 ft | 472 kts | 224° |
| 2026-04-25 16:11 | 71.81926 | -55.54858 | 39471 ft | 472 kts | 223° |
| 2026-04-25 16:12 | 71.76971 | -55.68405 | 39477 ft | 472 kts | 223° |
| 2026-04-25 16:12 | 71.71972 | -55.81971 | 39487 ft | 472 kts | 223° |
| 2026-04-25 16:13 | 71.66962 | -55.95476 | 39475 ft | 472 kts | 223° |
| 2026-04-25 16:13 | 71.61910 | -56.08995 | 39485 ft | 472 kts | 223° |
| 2026-04-25 16:14 | 71.56919 | -56.22254 | 39486 ft | 472 kts | 223° |
| 2026-04-25 16:14 | 71.51889 | -56.35522 | 39491 ft | 471 kts | 223° |
| 2026-04-25 16:15 | 71.46846 | -56.48734 | 39493 ft | 471 kts | 223° |
| 2026-04-25 16:15 | 71.41802 | -56.61849 | 39494 ft | 471 kts | 223° |
| 2026-04-25 16:16 | 71.36752 | -56.74892 | 39493 ft | 470 kts | 223° |
| 2026-04-25 16:16 | 71.31697 | -56.87859 | 39507 ft | 470 kts | 223° |
| 2026-04-25 16:17 | 71.26633 | -57.00756 | 39510 ft | 470 kts | 222° |
| 2026-04-25 16:17 | 71.21562 | -57.13583 | 39516 ft | 470 kts | 222° |
| 2026-04-25 16:18 | 71.16481 | -57.26344 | 39488 ft | 470 kts | 222° |
| 2026-04-25 16:18 | 71.11394 | -57.39034 | 39521 ft | 470 kts | 222° |
| 2026-04-25 16:19 | 71.06300 | -57.51654 | 39526 ft | 470 kts | 222° |
| 2026-04-25 16:19 | 71.01199 | -57.64206 | 39526 ft | 470 kts | 222° |
| 2026-04-25 16:20 | 70.93526 | -57.82925 | 39532 ft | 470 kts | 222° |
| 2026-04-25 16:21 | 70.85840 | -58.01485 | 39535 ft | 469 kts | 222° |
| 2026-04-25 16:21 | 70.80710 | -58.13768 | 39541 ft | 469 kts | 222° |
| 2026-04-25 16:22 | 70.75572 | -58.25989 | 39547 ft | 469 kts | 222° |
| 2026-04-25 16:22 | 70.70427 | -58.38146 | 39547 ft | 469 kts | 221° |
| 2026-04-25 16:23 | 70.65273 | -58.50242 | 39551 ft | 469 kts | 221° |
| 2026-04-25 16:23 | 70.60106 | -58.62285 | 39538 ft | 469 kts | 222° |
| 2026-04-25 16:24 | 70.54944 | -58.74239 | 39552 ft | 469 kts | 222° |
| 2026-04-25 16:24 | 70.49768 | -58.86146 | 39558 ft | 469 kts | 221° |
| 2026-04-25 16:25 | 70.44623 | -58.97905 | 39561 ft | 469 kts | 221° |
| 2026-04-25 16:25 | 70.39399 | -59.09767 | 39561 ft | 469 kts | 221° |
| 2026-04-25 16:26 | 70.34235 | -59.21416 | 39533 ft | 469 kts | 222° |
| 2026-04-25 16:26 | 70.29036 | -59.33065 | 39560 ft | 468 kts | 221° |
| 2026-04-25 16:27 | 70.23796 | -59.44731 | 39568 ft | 468 kts | 221° |
| 2026-04-25 16:27 | 70.18626 | -59.56167 | 39570 ft | 468 kts | 221° |
| 2026-04-25 16:28 | 70.13411 | -59.67630 | 39571 ft | 468 kts | 221° |
| 2026-04-25 16:28 | 70.08199 | -59.79007 | 39486 ft | 464 kts | 221° |
| 2026-04-25 16:28 | 70.05611 | -59.84629 | 39116 ft | 464 kts | 222° |
| 2026-04-25 16:29 | 70.03010 | -59.90266 | 38659 ft | 465 kts | 221° |
| 2026-04-25 16:29 | 70.00406 | -59.95894 | 38211 ft | 466 kts | 221° |
| 2026-04-25 16:29 | 69.97794 | -60.01520 | 37774 ft | 467 kts | 221° |
| 2026-04-25 16:29 | 69.95177 | -60.07135 | 37336 ft | 467 kts | 221° |
| 2026-04-25 16:30 | 69.92557 | -60.12739 | 36881 ft | 467 kts | 221° |
| 2026-04-25 16:30 | 69.89935 | -60.18329 | 36413 ft | 467 kts | 221° |
| 2026-04-25 16:30 | 69.87306 | -60.23916 | 35911 ft | 468 kts | 221° |
| 2026-04-25 16:30 | 69.84673 | -60.29494 | 35419 ft | 469 kts | 221° |
| 2026-04-25 16:31 | 69.82037 | -60.35062 | 34895 ft | 469 kts | 221° |
| 2026-04-25 16:31 | 69.79401 | -60.40611 | 34270 ft | 469 kts | 222° |
| 2026-04-25 16:31 | 69.76761 | -60.46152 | 33653 ft | 469 kts | 222° |
| 2026-04-25 16:31 | 69.74119 | -60.51676 | 33003 ft | 469 kts | 222° |
| 2026-04-25 16:32 | 69.71471 | -60.57197 | 32310 ft | 469 kts | 222° |
| 2026-04-25 16:32 | 69.68827 | -60.62696 | 31608 ft | 469 kts | 223° |
| 2026-04-25 16:32 | 69.66176 | -60.68189 | 30883 ft | 470 kts | 223° |
| 2026-04-25 16:32 | 69.63523 | -60.73671 | 30012 ft | 470 kts | 223° |
| 2026-04-25 16:33 | 69.60872 | -60.79128 | 29218 ft | 468 kts | 223° |
| 2026-04-25 16:33 | 69.58216 | -60.84584 | 29039 ft | 471 kts | 223° |
| 2026-04-25 16:33 | 69.55559 | -60.90020 | 28893 ft | 468 kts | 223° |
| 2026-04-25 16:33 | 69.52904 | -60.95436 | 28687 ft | 469 kts | 223° |
| 2026-04-25 16:34 | 69.50248 | -61.00838 | 28575 ft | 469 kts | 223° |
| 2026-04-25 16:34 | 69.44962 | -61.11540 | 28624 ft | 469 kts | 223° |
| 2026-04-25 16:35 | 69.39628 | -61.22275 | 28613 ft | 470 kts | 223° |
| 2026-04-25 16:35 | 69.34284 | -61.32961 | 28610 ft | 470 kts | 223° |
| 2026-04-25 16:36 | 69.28929 | -61.43602 | 28610 ft | 470 kts | 223° |
| 2026-04-25 16:36 | 69.23576 | -61.54174 | 28621 ft | 470 kts | 223° |
| 2026-04-25 16:37 | 69.18239 | -61.64643 | 28607 ft | 466 kts | 224° |
| 2026-04-25 16:37 | 69.12920 | -61.75029 | 28620 ft | 465 kts | 224° |
| 2026-04-25 16:38 | 69.07600 | -61.85356 | 28623 ft | 466 kts | 224° |
| 2026-04-25 16:38 | 69.02261 | -61.95658 | 28627 ft | 467 kts | 224° |
| 2026-04-25 16:39 | 68.96872 | -62.05793 | 28633 ft | 469 kts | 222° |
| 2026-04-25 16:39 | 68.91338 | -62.15472 | 28628 ft | 470 kts | 221° |
| 2026-04-25 16:40 | 68.85777 | -62.25055 | 28632 ft | 470 kts | 221° |
| 2026-04-25 16:40 | 68.80228 | -62.34644 | 28645 ft | 470 kts | 221° |
| 2026-04-25 16:41 | 68.74682 | -62.44231 | 28644 ft | 471 kts | 221° |
| 2026-04-25 16:41 | 68.66348 | -62.58545 | 28535 ft | 471 kts | 221° |
| 2026-04-25 16:42 | 68.60798 | -62.68005 | 28627 ft | 469 kts | 222° |
| 2026-04-25 16:42 | 68.55247 | -62.77410 | 28640 ft | 470 kts | 222° |
| 2026-04-25 16:43 | 68.49677 | -62.86795 | 28643 ft | 471 kts | 222° |
| 2026-04-25 16:43 | 68.44092 | -62.96148 | 28637 ft | 472 kts | 221° |
| 2026-04-25 16:44 | 68.38530 | -63.05404 | 28644 ft | 472 kts | 221° |
| 2026-04-25 16:44 | 68.32900 | -63.14721 | 28638 ft | 471 kts | 222° |
| 2026-04-25 16:45 | 68.27293 | -63.23947 | 28653 ft | 472 kts | 222° |
| 2026-04-25 16:45 | 68.21671 | -63.33146 | 28653 ft | 473 kts | 221° |
| 2026-04-25 16:46 | 68.16029 | -63.42322 | 28660 ft | 474 kts | 221° |
| 2026-04-25 16:46 | 68.12290 | -63.48373 | 28660 ft | 474 kts | 221° |
| 2026-04-25 16:47 | 68.04761 | -63.60480 | 28633 ft | 473 kts | 222° |
| 2026-04-25 16:47 | 67.99114 | -63.69506 | 28666 ft | 474 kts | 222° |
| 2026-04-25 16:48 | 67.93443 | -63.78524 | 28682 ft | 475 kts | 222° |
| 2026-04-25 16:48 | 67.87757 | -63.87511 | 28679 ft | 476 kts | 221° |
| 2026-04-25 16:49 | 67.82057 | -63.96464 | 28683 ft | 477 kts | 221° |
| 2026-04-25 16:49 | 67.76357 | -64.05360 | 28654 ft | 474 kts | 222° |
| 2026-04-25 16:50 | 67.71627 | -64.12707 | 28692 ft | 475 kts | 222° |
| 2026-04-25 16:50 | 67.65889 | -64.21581 | 28665 ft | 475 kts | 221° |
| 2026-04-25 16:51 | 67.60202 | -64.30330 | 28714 ft | 474 kts | 222° |
| 2026-04-25 16:51 | 67.55464 | -64.37569 | 28700 ft | 474 kts | 222° |
| 2026-04-25 16:52 | 67.51650 | -64.43380 | 28561 ft | 475 kts | 222° |
| 2026-04-25 16:52 | 67.48789 | -64.47720 | 28605 ft | 474 kts | 223° |
| 2026-04-25 16:52 | 67.43082 | -64.56342 | 28667 ft | 475 kts | 223° |
| 2026-04-25 16:53 | 67.34499 | -64.69225 | 28665 ft | 476 kts | 223° |
| 2026-04-25 16:54 | 67.28757 | -64.77788 | 28668 ft | 477 kts | 223° |
| 2026-04-25 16:54 | 67.22994 | -64.86316 | 28605 ft | 477 kts | 223° |
| 2026-04-25 16:55 | 67.17342 | -64.94817 | 28532 ft | 460 kts | 226° |
| 2026-04-25 16:55 | 67.11974 | -65.03248 | 28629 ft | 456 kts | 223° |
| 2026-04-25 16:56 | 67.06286 | -65.11211 | 28587 ft | 473 kts | 221° |
| 2026-04-25 16:56 | 67.00452 | -65.19351 | 28543 ft | 480 kts | 222° |
| 2026-04-25 16:57 | 66.94631 | -65.27655 | 28556 ft | 480 kts | 222° |
| 2026-04-25 16:57 | 66.88820 | -65.35965 | 28535 ft | 478 kts | 222° |
| 2026-04-25 16:58 | 66.83020 | -65.44239 | 28599 ft | 478 kts | 222° |
| 2026-04-25 16:58 | 66.77200 | -65.52512 | 28589 ft | 481 kts | 222° |
| 2026-04-25 16:59 | 66.71349 | -65.60793 | 28566 ft | 482 kts | 221° |
| 2026-04-25 16:59 | 66.65498 | -65.68992 | 28584 ft | 479 kts | 221° |
| 2026-04-25 17:00 | 66.59673 | -65.77101 | 28591 ft | 479 kts | 221° |
| 2026-04-25 17:00 | 66.53833 | -65.85243 | 28599 ft | 481 kts | 221° |
| 2026-04-25 17:01 | 66.47972 | -65.93355 | 28593 ft | 480 kts | 221° |
| 2026-04-25 17:01 | 66.42085 | -66.01430 | 28607 ft | 484 kts | 220° |
| 2026-04-25 17:02 | 66.36148 | -66.09488 | 28551 ft | 487 kts | 220° |
| 2026-04-25 17:02 | 66.30188 | -66.17588 | 28607 ft | 488 kts | 220° |
| 2026-04-25 17:03 | 66.24222 | -66.25645 | 28610 ft | 489 kts | 220° |
| 2026-04-25 17:03 | 66.18234 | -66.33697 | 28608 ft | 490 kts | 220° |
| 2026-04-25 17:04 | 66.12229 | -66.41727 | 28617 ft | 491 kts | 220° |
| 2026-04-25 17:04 | 66.06264 | -66.49648 | 28620 ft | 490 kts | 220° |
| 2026-04-25 17:05 | 66.00267 | -66.57567 | 28621 ft | 488 kts | 220° |
| 2026-04-25 17:05 | 65.91288 | -66.69355 | 28620 ft | 487 kts | 219° |
| 2026-04-25 17:06 | 65.85303 | -66.77164 | 28634 ft | 488 kts | 219° |
| 2026-04-25 17:06 | 65.79311 | -66.84940 | 28567 ft | 488 kts | 219° |
| 2026-04-25 17:07 | 65.73363 | -66.92615 | 28636 ft | 489 kts | 219° |
| 2026-04-25 17:07 | 65.67336 | -67.00353 | 28646 ft | 491 kts | 219° |
| 2026-04-25 17:08 | 65.61285 | -67.08081 | 28644 ft | 492 kts | 219° |
| 2026-04-25 17:08 | 65.55214 | -67.15791 | 28655 ft | 494 kts | 219° |
| 2026-04-25 17:09 | 65.49128 | -67.23482 | 28574 ft | 494 kts | 218° |
| 2026-04-25 17:09 | 65.43031 | -67.31137 | 28662 ft | 494 kts | 218° |
| 2026-04-25 17:10 | 65.36922 | -67.38768 | 28660 ft | 495 kts | 218° |
| 2026-04-25 17:10 | 65.30802 | -67.46382 | 28664 ft | 496 kts | 218° |
| 2026-04-25 17:11 | 65.24671 | -67.53961 | 28665 ft | 496 kts | 218° |
| 2026-04-25 17:11 | 65.18539 | -67.61516 | 28635 ft | 496 kts | 217° |
| 2026-04-25 17:12 | 65.12404 | -67.69018 | 28661 ft | 496 kts | 217° |
| 2026-04-25 17:12 | 65.06256 | -67.76501 | 28694 ft | 497 kts | 217° |
| 2026-04-25 17:13 | 65.02174 | -67.81450 | 28689 ft | 498 kts | 217° |
| 2026-04-25 17:13 | 64.93957 | -67.91361 | 28689 ft | 498 kts | 217° |
| 2026-04-25 17:14 | 64.87781 | -67.98762 | 28680 ft | 498 kts | 216° |
| 2026-04-25 17:14 | 64.81589 | -68.06143 | 28695 ft | 499 kts | 216° |
| 2026-04-25 17:15 | 64.75387 | -68.13506 | 28690 ft | 501 kts | 216° |
| 2026-04-25 17:15 | 64.69164 | -68.20848 | 28694 ft | 501 kts | 216° |
| 2026-04-25 17:16 | 64.62941 | -68.28150 | 28639 ft | 500 kts | 215° |
| 2026-04-25 17:16 | 64.56715 | -68.35423 | 28685 ft | 501 kts | 215° |
| 2026-04-25 17:17 | 64.50475 | -68.42676 | 28686 ft | 502 kts | 215° |